Wetterdaten aus der Harmsstraße 54 in 24114 Kiel (4. OG, außen), die per BME280 und einem ESP-32 erhoben werden.
Unter https://wetter.janbpunkt.de/weather.xml steht eine entsprechende XML bereit, die das jüngste Messergebnis enthält.
Da der weatherino ab und zu ausfällt/gewartet wird, können Messpunkte fehlen.
Keine Garantie auf Korrektheit der Werte. Keine Haftung für direkte oder indirekte Schäden, die aus der Verwendung der Daten resultieren. Die Daten der Website werden per SSL verschlüsselt übertragen, es werden keine Cookies gesetzt und keine IP-Adressen geloggt. Weiterhin findet keine Verarbeitung von personenbezogenen Daten statt.
Mehr zu dem Projekt findet man hier.
Impressum| Zeitpunkt | Temperatur | Luftfeuchte | Luftdruck |
|---|---|---|---|
| 2026-05-10 16:49:47 | 18.04 ℃ | 100 % | 1011.99 hPa |
| Zeitpunkt | Temperatur | Luftfeuchte | Luftdruck |
|---|---|---|---|
| 2026-05-10 16:49:47 | 18.04 ℃ | 100 % | 1011.99 hPa |
| 2026-05-10 16:39:48 | 17.97 ℃ | 100 % | 1012.08 hPa |
| 2026-05-10 16:29:47 | 18.29 ℃ | 100 % | 1012.19 hPa |
| 2026-05-10 16:19:48 | 17.83 ℃ | 100 % | 1012.32 hPa |
| 2026-05-10 16:09:48 | 17.51 ℃ | 100 % | 1012.41 hPa |
| 2026-05-10 15:59:48 | 17.79 ℃ | 100 % | 1012.43 hPa |
| 2026-05-10 15:49:48 | 17.27 ℃ | 100 % | 1012.54 hPa |
| 2026-05-10 15:39:48 | 17.2 ℃ | 100 % | 1012.6 hPa |
| 2026-05-10 15:29:48 | 17.02 ℃ | 100 % | 1012.71 hPa |
| 2026-05-10 15:19:48 | 17.13 ℃ | 100 % | 1012.77 hPa |
| 2026-05-10 15:09:48 | 16.47 ℃ | 100 % | 1012.91 hPa |
| 2026-05-10 14:59:48 | 16.49 ℃ | 100 % | 1012.98 hPa |
| 2026-05-10 14:49:48 | 16.27 ℃ | 99.99 % | 1012.99 hPa |
| 2026-05-10 14:39:48 | 16.16 ℃ | 99.98 % | 1013.09 hPa |
| 2026-05-10 14:29:48 | 16.58 ℃ | 99.96 % | 1013.1 hPa |
| 2026-05-10 14:19:48 | 16.44 ℃ | 99.93 % | 1013.19 hPa |
| 2026-05-10 14:09:48 | 16.98 ℃ | 99.86 % | 1013.23 hPa |
| 2026-05-10 13:59:48 | 16.89 ℃ | 99.72 % | 1013.3 hPa |
| 2026-05-10 13:49:48 | 16.92 ℃ | 99.44 % | 1013.35 hPa |
| 2026-05-10 13:39:48 | 17.23 ℃ | 98.88 % | 1013.37 hPa |
| 2026-05-10 13:29:48 | 18.03 ℃ | 97.75 % | 1013.39 hPa |
| 2026-05-10 13:19:48 | 18.13 ℃ | 95.51 % | 1013.44 hPa |
| 2026-05-10 13:09:48 | 18.9 ℃ | 91.01 % | 1013.42 hPa |
| 2026-05-10 12:59:48 | 20.26 ℃ | 82.02 % | 1013.35 hPa |
| 2026-05-10 12:49:48 | 21.85 ℃ | 64.05 % | 1013.33 hPa |
| 2026-05-10 12:39:48 | 21.86 ℃ | 64.15 % | 1013.41 hPa |
| 2026-05-10 12:29:48 | 22.23 ℃ | 63.24 % | 1013.45 hPa |
| 2026-05-10 12:19:49 | 22.05 ℃ | 63.82 % | 1013.54 hPa |
| 2026-05-10 12:09:48 | 21.76 ℃ | 65.69 % | 1013.63 hPa |
| 2026-05-10 11:59:49 | 21.39 ℃ | 66.83 % | 1013.7 hPa |
| 2026-05-10 11:49:48 | 21.03 ℃ | 67.87 % | 1013.76 hPa |
| 2026-05-10 11:39:48 | 21.21 ℃ | 67.36 % | 1013.85 hPa |
| 2026-05-10 11:29:48 | 21.71 ℃ | 66.34 % | 1013.94 hPa |
| 2026-05-10 11:19:48 | 21.96 ℃ | 65.85 % | 1014 hPa |
| 2026-05-10 11:09:48 | 21.64 ℃ | 66.48 % | 1014.1 hPa |
| 2026-05-10 10:59:48 | 21.23 ℃ | 66.71 % | 1014.16 hPa |
| 2026-05-10 10:49:48 | 20.9 ℃ | 68.26 % | 1014.21 hPa |
| 2026-05-10 10:39:48 | 20.73 ℃ | 69.13 % | 1014.32 hPa |
| 2026-05-10 10:29:51 | 21.17 ℃ | 69.72 % | 1014.39 hPa |
| 2026-05-10 10:19:48 | 21.73 ℃ | 71.21 % | 1014.49 hPa |
| 2026-05-10 10:09:48 | 21.19 ℃ | 75.09 % | 1014.62 hPa |
| 2026-05-10 09:59:49 | 21.06 ℃ | 78.53 % | 1014.65 hPa |
| 2026-05-10 09:49:49 | 21.13 ℃ | 80.77 % | 1014.69 hPa |
| 2026-05-10 09:39:50 | 20.76 ℃ | 85.09 % | 1014.73 hPa |
| 2026-05-10 09:29:49 | 20.86 ℃ | 84.63 % | 1014.73 hPa |
| 2026-05-10 09:19:48 | 21.16 ℃ | 82.68 % | 1014.75 hPa |
| 2026-05-10 09:09:48 | 21.31 ℃ | 82.7 % | 1014.69 hPa |
| 2026-05-10 08:59:48 | 21.34 ℃ | 84.9 % | 1014.64 hPa |
| 2026-05-10 08:49:48 | 21.17 ℃ | 87.84 % | 1014.66 hPa |
| 2026-05-10 08:39:48 | 21.07 ℃ | 89.85 % | 1014.66 hPa |
| 2026-05-10 08:29:48 | 20.53 ℃ | 94.1 % | 1014.73 hPa |
| 2026-05-10 08:19:48 | 20.26 ℃ | 96.45 % | 1014.8 hPa |
| 2026-05-10 08:09:49 | 19.81 ℃ | 99.35 % | 1014.92 hPa |
| 2026-05-10 07:59:49 | 19.84 ℃ | 99.99 % | 1015.01 hPa |
| 2026-05-10 07:49:48 | 19.92 ℃ | 99.98 % | 1015.04 hPa |
| 2026-05-10 07:39:48 | 19.51 ℃ | 100 % | 1015.06 hPa |
| 2026-05-10 07:29:48 | 19.23 ℃ | 100 % | 1015.09 hPa |
| 2026-05-10 07:19:48 | 18.84 ℃ | 100 % | 1015.15 hPa |
| 2026-05-10 07:09:49 | 18.65 ℃ | 100 % | 1015.18 hPa |
| 2026-05-10 06:59:49 | 18.14 ℃ | 100 % | 1015.23 hPa |
| 2026-05-10 06:49:48 | 18.31 ℃ | 100 % | 1015.25 hPa |
| 2026-05-10 06:39:49 | 18.27 ℃ | 100 % | 1015.32 hPa |
| 2026-05-10 06:29:49 | 18.45 ℃ | 100 % | 1015.4 hPa |
| 2026-05-10 06:19:48 | 18.59 ℃ | 100 % | 1015.5 hPa |
| 2026-05-10 06:09:49 | 18.21 ℃ | 100 % | 1015.59 hPa |
| 2026-05-10 05:59:48 | 18.03 ℃ | 100 % | 1015.71 hPa |
| 2026-05-10 05:49:48 | 17.64 ℃ | 100 % | 1015.8 hPa |
| 2026-05-10 05:39:48 | 17.5 ℃ | 100 % | 1015.9 hPa |
| 2026-05-10 05:29:48 | 17.87 ℃ | 100 % | 1015.98 hPa |
| 2026-05-10 05:19:49 | 18.23 ℃ | 100 % | 1016.05 hPa |
| 2026-05-10 05:09:48 | 18.79 ℃ | 100 % | 1016.06 hPa |
| 2026-05-10 04:59:48 | 19.3 ℃ | 100 % | 1016.09 hPa |
| 2026-05-10 04:49:49 | 19.31 ℃ | 100 % | 1016.11 hPa |
| 2026-05-10 04:39:49 | 19.29 ℃ | 100 % | 1016.18 hPa |
| 2026-05-10 04:29:49 | 19.27 ℃ | 100 % | 1016.23 hPa |
| 2026-05-10 04:19:49 | 19.14 ℃ | 100 % | 1016.32 hPa |
| 2026-05-10 04:09:49 | 18.83 ℃ | 100 % | 1016.38 hPa |
| 2026-05-10 03:59:49 | 18.26 ℃ | 100 % | 1016.39 hPa |
| 2026-05-10 03:49:49 | 17.65 ℃ | 100 % | 1016.37 hPa |
| 2026-05-10 03:39:49 | 17.59 ℃ | 100 % | 1016.36 hPa |
| 2026-05-10 03:29:49 | 17.32 ℃ | 100 % | 1016.38 hPa |
| 2026-05-10 03:19:49 | 17.61 ℃ | 100 % | 1016.44 hPa |
| 2026-05-10 03:09:49 | 17.35 ℃ | 100 % | 1016.52 hPa |
| 2026-05-10 02:59:50 | 17.41 ℃ | 100 % | 1016.63 hPa |
| 2026-05-10 02:49:49 | 17.44 ℃ | 100 % | 1016.84 hPa |
| 2026-05-10 02:39:49 | 17.37 ℃ | 100 % | 1017.03 hPa |
| 2026-05-10 02:29:51 | 17.14 ℃ | 100 % | 1017.22 hPa |
| 2026-05-10 02:19:49 | 17.33 ℃ | 100 % | 1017.33 hPa |
| 2026-05-10 02:09:49 | 17.51 ℃ | 100 % | 1017.39 hPa |
| 2026-05-10 01:59:49 | 17.41 ℃ | 100 % | 1017.41 hPa |
| 2026-05-10 01:49:49 | 17.35 ℃ | 100 % | 1017.45 hPa |
| 2026-05-10 01:39:50 | 17.59 ℃ | 99.99 % | 1017.6 hPa |
| 2026-05-10 01:29:49 | 17.94 ℃ | 99.99 % | 1017.73 hPa |
| 2026-05-10 01:19:49 | 18.11 ℃ | 99.97 % | 1017.8 hPa |
| 2026-05-10 01:09:51 | 17.73 ℃ | 99.95 % | 1017.91 hPa |
| 2026-05-10 00:59:49 | 17.61 ℃ | 99.89 % | 1018.05 hPa |
| 2026-05-10 00:49:49 | 17.53 ℃ | 99.79 % | 1018.18 hPa |
| 2026-05-10 00:39:49 | 17.84 ℃ | 99.57 % | 1018.32 hPa |
| 2026-05-10 00:29:49 | 18.02 ℃ | 99.15 % | 1018.4 hPa |
| 2026-05-10 00:19:49 | 18.06 ℃ | 98.34 % | 1018.44 hPa |
| 2026-05-10 00:09:49 | 17.61 ℃ | 99.69 % | 1018.51 hPa |
| 2026-05-09 23:59:49 | 17.87 ℃ | 99.39 % | 1018.57 hPa |
| 2026-05-09 23:49:49 | 17.75 ℃ | 99.25 % | 1018.69 hPa |
| 2026-05-09 23:39:49 | 17.55 ℃ | 99.72 % | 1018.75 hPa |
| 2026-05-09 23:29:49 | 17.71 ℃ | 99.45 % | 1018.82 hPa |
| 2026-05-09 23:19:49 | 17.96 ℃ | 98.89 % | 1018.87 hPa |
| 2026-05-09 23:09:49 | 17.83 ℃ | 99.12 % | 1018.92 hPa |
| 2026-05-09 22:59:49 | 17.77 ℃ | 98.92 % | 1018.96 hPa |
| 2026-05-09 22:49:49 | 17.62 ℃ | 98.03 % | 1018.97 hPa |
| 2026-05-09 22:39:49 | 17.44 ℃ | 98.74 % | 1018.98 hPa |
| 2026-05-09 22:29:49 | 17.53 ℃ | 97.62 % | 1018.99 hPa |
| 2026-05-09 22:19:49 | 17.49 ℃ | 99.05 % | 1018.97 hPa |
| 2026-05-09 22:09:49 | 17.47 ℃ | 99.87 % | 1018.91 hPa |
| 2026-05-09 21:59:49 | 17.59 ℃ | 100 % | 1018.85 hPa |
| 2026-05-09 21:49:49 | 17.51 ℃ | 100 % | 1018.81 hPa |
| 2026-05-09 21:39:49 | 17.01 ℃ | 99.99 % | 1018.79 hPa |
| 2026-05-09 21:29:50 | 17.07 ℃ | 99.98 % | 1018.76 hPa |
| 2026-05-09 21:19:49 | 17.16 ℃ | 99.97 % | 1018.69 hPa |
| 2026-05-09 21:09:49 | 17.19 ℃ | 99.94 % | 1018.6 hPa |
| 2026-05-09 20:59:50 | 17.48 ℃ | 99.88 % | 1018.51 hPa |
| 2026-05-09 20:49:50 | 17.53 ℃ | 99.75 % | 1018.46 hPa |
| 2026-05-09 20:39:49 | 18.08 ℃ | 99.51 % | 1018.43 hPa |
| 2026-05-09 20:29:49 | 18.37 ℃ | 99.02 % | 1018.36 hPa |
| 2026-05-09 20:19:49 | 18.72 ℃ | 98.04 % | 1018.33 hPa |
| 2026-05-09 20:09:49 | 19.05 ℃ | 96.08 % | 1018.33 hPa |
| 2026-05-09 19:59:49 | 18.83 ℃ | 97.84 % | 1018.29 hPa |
| 2026-05-09 19:49:51 | 18.09 ℃ | 100 % | 1018.3 hPa |
| 2026-05-09 19:39:49 | 17.45 ℃ | 100 % | 1018.31 hPa |
| 2026-05-09 19:29:49 | 17.56 ℃ | 100 % | 1018.32 hPa |
| 2026-05-09 19:19:49 | 17.98 ℃ | 100 % | 1018.33 hPa |
| 2026-05-09 19:09:50 | 18.71 ℃ | 100 % | 1018.36 hPa |
| 2026-05-09 18:59:50 | 18.43 ℃ | 100 % | 1018.43 hPa |
| 2026-05-09 18:49:50 | 17.78 ℃ | 100 % | 1018.5 hPa |
| 2026-05-09 18:39:49 | 17.73 ℃ | 100 % | 1018.52 hPa |
| 2026-05-09 18:29:49 | 17.95 ℃ | 100 % | 1018.58 hPa |
| 2026-05-09 18:19:49 | 17.53 ℃ | 100 % | 1018.75 hPa |
| 2026-05-09 18:09:50 | 17.86 ℃ | 100 % | 1018.79 hPa |
| 2026-05-09 17:59:49 | 18.01 ℃ | 100 % | 1018.84 hPa |
| 2026-05-09 17:49:50 | 17.71 ℃ | 100 % | 1018.89 hPa |
| 2026-05-09 17:39:51 | 17.75 ℃ | 100 % | 1018.95 hPa |
| 2026-05-09 17:29:50 | 17.44 ℃ | 100 % | 1019.08 hPa |
| 2026-05-09 17:19:50 | 17.48 ℃ | 100 % | 1019.18 hPa |
| 2026-05-09 17:09:50 | 17.35 ℃ | 100 % | 1019.28 hPa |
| 2026-05-09 16:59:50 | 17.61 ℃ | 100 % | 1019.36 hPa |
| 2026-05-09 16:49:50 | 17.74 ℃ | 100 % | 1019.48 hPa |
| 2026-05-09 16:39:50 | 17.99 ℃ | 100 % | 1019.56 hPa |
| 2026-05-09 16:29:50 | 17.49 ℃ | 100 % | 1019.68 hPa |
| 2026-05-09 16:19:50 | 17.65 ℃ | 100 % | 1019.87 hPa |
| 2026-05-09 16:09:50 | 17.52 ℃ | 100 % | 1020.02 hPa |
| 2026-05-09 15:59:50 | 17.5 ℃ | 100 % | 1020.16 hPa |
| 2026-05-09 15:49:50 | 17.28 ℃ | 100 % | 1020.33 hPa |
| 2026-05-09 15:39:50 | 17.27 ℃ | 100 % | 1020.46 hPa |
| 2026-05-09 15:29:50 | 17.26 ℃ | 100 % | 1020.58 hPa |
| 2026-05-09 15:19:50 | 16.71 ℃ | 100 % | 1020.68 hPa |
| 2026-05-09 15:09:50 | 17.04 ℃ | 100 % | 1020.73 hPa |
| 2026-05-09 14:59:50 | 16.85 ℃ | 100 % | 1020.84 hPa |
| 2026-05-09 14:49:50 | 16.94 ℃ | 100 % | 1020.92 hPa |
| 2026-05-09 14:39:51 | 16.85 ℃ | 100 % | 1020.94 hPa |
| 2026-05-09 14:29:50 | 16.84 ℃ | 99.99 % | 1021.02 hPa |
| 2026-05-09 14:19:50 | 16.67 ℃ | 99.98 % | 1021.12 hPa |
| 2026-05-09 14:09:50 | 16.74 ℃ | 99.96 % | 1021.16 hPa |
| 2026-05-09 13:59:50 | 16.87 ℃ | 99.92 % | 1021.29 hPa |
| 2026-05-09 13:49:50 | 16.83 ℃ | 99.85 % | 1021.43 hPa |
| 2026-05-09 13:39:50 | 17.01 ℃ | 99.7 % | 1021.51 hPa |
| 2026-05-09 13:29:50 | 16.84 ℃ | 99.4 % | 1021.65 hPa |
| 2026-05-09 13:19:50 | 17.22 ℃ | 98.8 % | 1021.69 hPa |
| 2026-05-09 13:09:50 | 17.97 ℃ | 97.59 % | 1021.74 hPa |
| 2026-05-09 12:59:50 | 17.75 ℃ | 95.19 % | 1021.76 hPa |
| 2026-05-09 12:49:50 | 16.78 ℃ | 96.8 % | 1021.85 hPa |
| 2026-05-09 12:39:50 | 17.74 ℃ | 93.59 % | 1021.87 hPa |
| 2026-05-09 12:29:50 | 16.7 ℃ | 98.3 % | 1021.94 hPa |
| 2026-05-09 12:19:50 | 16.99 ℃ | 96.59 % | 1021.92 hPa |
| 2026-05-09 12:09:50 | 16.63 ℃ | 96.44 % | 1021.99 hPa |
| 2026-05-09 11:59:50 | 16.51 ℃ | 97.46 % | 1022.02 hPa |
| 2026-05-09 11:49:51 | 17.07 ℃ | 94.91 % | 1022.01 hPa |
| 2026-05-09 11:39:50 | 15.94 ℃ | 98.98 % | 1022.06 hPa |
| 2026-05-09 11:29:50 | 15.88 ℃ | 98.45 % | 1022.05 hPa |
| 2026-05-09 11:19:52 | 15.57 ℃ | 97.87 % | 1022.09 hPa |
| 2026-05-09 11:09:50 | 16.27 ℃ | 95.74 % | 1022.09 hPa |
| 2026-05-09 10:59:51 | 15.46 ℃ | 100 % | 1022.13 hPa |
| 2026-05-09 10:49:50 | 15.33 ℃ | 100 % | 1022.11 hPa |
| 2026-05-09 10:39:50 | 14.93 ℃ | 100 % | 1022.17 hPa |
| 2026-05-09 10:29:51 | 14.9 ℃ | 100 % | 1022.25 hPa |
| 2026-05-09 10:19:50 | 15.17 ℃ | 100 % | 1022.22 hPa |
| 2026-05-09 10:09:50 | 14.83 ℃ | 100 % | 1022.28 hPa |
| 2026-05-09 09:59:50 | 14.76 ℃ | 100 % | 1022.32 hPa |
| 2026-05-09 09:49:50 | 14.71 ℃ | 100 % | 1022.35 hPa |
| 2026-05-09 09:39:50 | 14.9 ℃ | 100 % | 1022.38 hPa |
| 2026-05-09 09:29:50 | 15.32 ℃ | 100 % | 1022.41 hPa |
| 2026-05-09 09:19:51 | 15 ℃ | 100 % | 1022.47 hPa |
| 2026-05-09 09:09:50 | 15.19 ℃ | 100 % | 1022.45 hPa |
| 2026-05-09 08:59:50 | 14.79 ℃ | 100 % | 1022.5 hPa |
| 2026-05-09 08:49:50 | 14.71 ℃ | 100 % | 1022.49 hPa |
| 2026-05-09 08:39:50 | 14.87 ℃ | 100 % | 1022.46 hPa |
| 2026-05-09 08:29:51 | 13.91 ℃ | 100 % | 1022.49 hPa |
| 2026-05-09 08:19:50 | 14.21 ℃ | 100 % | 1022.52 hPa |
| 2026-05-09 08:09:51 | 13.62 ℃ | 100 % | 1022.54 hPa |
| 2026-05-09 07:59:52 | 14.42 ℃ | 100 % | 1022.51 hPa |
| 2026-05-09 07:49:50 | 14.23 ℃ | 100 % | 1022.55 hPa |
| 2026-05-09 07:39:51 | 13.16 ℃ | 100 % | 1022.57 hPa |
| 2026-05-09 07:29:50 | 12.31 ℃ | 100 % | 1022.54 hPa |
| 2026-05-09 07:19:51 | 12.05 ℃ | 100 % | 1022.5 hPa |
| 2026-05-09 07:09:51 | 12.11 ℃ | 100 % | 1022.43 hPa |
| 2026-05-09 06:59:51 | 11.91 ℃ | 100 % | 1022.37 hPa |
| 2026-05-09 06:49:53 | 11.88 ℃ | 100 % | 1022.37 hPa |
| 2026-05-09 06:39:51 | 12.01 ℃ | 100 % | 1022.37 hPa |
| 2026-05-09 06:29:51 | 12.23 ℃ | 100 % | 1022.36 hPa |
| 2026-05-09 06:19:51 | 12.75 ℃ | 100 % | 1022.42 hPa |
| 2026-05-09 06:09:51 | 12.83 ℃ | 100 % | 1022.42 hPa |
| 2026-05-09 05:59:51 | 12.41 ℃ | 100 % | 1022.45 hPa |
| 2026-05-09 05:49:50 | 12.08 ℃ | 100 % | 1022.49 hPa |
| 2026-05-09 05:39:51 | 11.63 ℃ | 100 % | 1022.51 hPa |
| 2026-05-09 05:29:51 | 11.69 ℃ | 100 % | 1022.55 hPa |
| 2026-05-09 05:19:51 | 11.34 ℃ | 100 % | 1022.59 hPa |
| 2026-05-09 05:09:51 | 11.24 ℃ | 100 % | 1022.59 hPa |
| 2026-05-09 04:59:51 | 11.38 ℃ | 100 % | 1022.59 hPa |
| 2026-05-09 04:49:51 | 11.51 ℃ | 100 % | 1022.57 hPa |
| 2026-05-09 04:39:51 | 11.55 ℃ | 100 % | 1022.5 hPa |
| 2026-05-09 04:29:51 | 11.37 ℃ | 100 % | 1022.49 hPa |
| 2026-05-09 04:19:51 | 11.7 ℃ | 100 % | 1022.49 hPa |
| 2026-05-09 04:09:51 | 11.61 ℃ | 100 % | 1022.5 hPa |
| 2026-05-09 03:59:51 | 12.09 ℃ | 100 % | 1022.54 hPa |
| 2026-05-09 03:49:51 | 12.15 ℃ | 100 % | 1022.6 hPa |
| 2026-05-09 03:39:51 | 11.56 ℃ | 100 % | 1022.63 hPa |
| 2026-05-09 03:29:51 | 11.76 ℃ | 100 % | 1022.61 hPa |
| 2026-05-09 03:19:51 | 11.65 ℃ | 100 % | 1022.58 hPa |
| 2026-05-09 03:09:51 | 11.8 ℃ | 100 % | 1022.58 hPa |
| 2026-05-09 02:59:51 | 12.29 ℃ | 100 % | 1022.57 hPa |
| 2026-05-09 02:49:52 | 12.39 ℃ | 100 % | 1022.54 hPa |
| 2026-05-09 02:39:52 | 12.55 ℃ | 100 % | 1022.49 hPa |
| 2026-05-09 02:29:51 | 12.24 ℃ | 100 % | 1022.52 hPa |
| 2026-05-09 02:19:51 | 12.18 ℃ | 100 % | 1022.57 hPa |
| 2026-05-09 02:09:51 | 12.29 ℃ | 100 % | 1022.59 hPa |
| 2026-05-09 01:59:51 | 12.43 ℃ | 100 % | 1022.61 hPa |
| 2026-05-09 01:49:51 | 12.02 ℃ | 100 % | 1022.67 hPa |
| 2026-05-09 01:39:51 | 12.11 ℃ | 100 % | 1022.7 hPa |
| 2026-05-09 01:29:51 | 12.48 ℃ | 100 % | 1022.77 hPa |
| 2026-05-09 01:19:51 | 12.56 ℃ | 100 % | 1022.76 hPa |
| 2026-05-09 01:09:51 | 12.79 ℃ | 100 % | 1022.73 hPa |
| 2026-05-09 00:59:51 | 12.89 ℃ | 100 % | 1022.7 hPa |
| 2026-05-09 00:49:52 | 12.78 ℃ | 100 % | 1022.72 hPa |
| 2026-05-09 00:39:51 | 12.93 ℃ | 100 % | 1022.72 hPa |
| 2026-05-09 00:29:51 | 13.01 ℃ | 100 % | 1022.75 hPa |
| 2026-05-09 00:19:51 | 12.89 ℃ | 100 % | 1022.73 hPa |
| 2026-05-09 00:09:51 | 12.78 ℃ | 100 % | 1022.74 hPa |
| 2026-05-08 23:59:51 | 12.87 ℃ | 100 % | 1022.72 hPa |
| 2026-05-08 23:49:52 | 12.95 ℃ | 100 % | 1022.68 hPa |
| 2026-05-08 23:39:52 | 13.12 ℃ | 100 % | 1022.66 hPa |
| 2026-05-08 23:29:52 | 13.35 ℃ | 100 % | 1022.59 hPa |
| 2026-05-08 23:19:52 | 13.3 ℃ | 100 % | 1022.56 hPa |
| 2026-05-08 23:09:52 | 13.11 ℃ | 100 % | 1022.56 hPa |
| 2026-05-08 22:59:51 | 13.36 ℃ | 100 % | 1022.57 hPa |
| 2026-05-08 22:49:51 | 13.35 ℃ | 100 % | 1022.54 hPa |
| 2026-05-08 22:39:52 | 13.59 ℃ | 99.99 % | 1022.49 hPa |
| 2026-05-08 22:29:52 | 13.6 ℃ | 99.99 % | 1022.44 hPa |
| 2026-05-08 22:19:52 | 13.84 ℃ | 99.97 % | 1022.41 hPa |
| 2026-05-08 22:09:52 | 13.74 ℃ | 99.94 % | 1022.42 hPa |
| 2026-05-08 21:59:52 | 13.69 ℃ | 99.88 % | 1022.39 hPa |
| 2026-05-08 21:49:51 | 13.85 ℃ | 99.76 % | 1022.34 hPa |
| 2026-05-08 21:39:51 | 13.72 ℃ | 99.53 % | 1022.3 hPa |
| 2026-05-08 21:29:51 | 13.78 ℃ | 99.06 % | 1022.19 hPa |
| 2026-05-08 21:19:51 | 13.84 ℃ | 98.11 % | 1022.14 hPa |
| 2026-05-08 21:09:51 | 13.92 ℃ | 96.9 % | 1022.07 hPa |
| 2026-05-08 20:59:52 | 14.01 ℃ | 93.8 % | 1021.93 hPa |
| 2026-05-08 20:49:52 | 14.46 ℃ | 87.61 % | 1021.8 hPa |
| 2026-05-08 20:39:52 | 14.6 ℃ | 83.8 % | 1021.75 hPa |
| 2026-05-08 20:29:51 | 14.69 ℃ | 80.31 % | 1021.7 hPa |
| 2026-05-08 20:19:52 | 15 ℃ | 76.84 % | 1021.63 hPa |
| 2026-05-08 20:09:52 | 14.79 ℃ | 75.1 % | 1021.61 hPa |
| 2026-05-08 19:59:52 | 14.64 ℃ | 73.66 % | 1021.54 hPa |
| 2026-05-08 19:49:52 | 14.57 ℃ | 72.2 % | 1021.49 hPa |
| 2026-05-08 19:39:52 | 14.59 ℃ | 70.82 % | 1021.45 hPa |
| 2026-05-08 19:29:51 | 14.87 ℃ | 68.74 % | 1021.36 hPa |
| 2026-05-08 19:19:51 | 15.12 ℃ | 66.78 % | 1021.33 hPa |
| 2026-05-08 19:09:52 | 15.18 ℃ | 65.86 % | 1021.26 hPa |
| 2026-05-08 18:59:52 | 15.28 ℃ | 64.53 % | 1021.23 hPa |
| 2026-05-08 18:49:52 | 15.58 ℃ | 63.62 % | 1021.19 hPa |
| 2026-05-08 18:39:52 | 15.52 ℃ | 64.15 % | 1021.15 hPa |
| 2026-05-08 18:29:52 | 15.55 ℃ | 64.33 % | 1021.12 hPa |
| 2026-05-08 18:19:52 | 15.64 ℃ | 64.87 % | 1021.09 hPa |
| 2026-05-08 18:09:52 | 15.9 ℃ | 65.47 % | 1021.03 hPa |
| 2026-05-08 17:59:52 | 16.08 ℃ | 65.94 % | 1021 hPa |
| 2026-05-08 17:49:52 | 15.87 ℃ | 67.52 % | 1021.05 hPa |
| 2026-05-08 17:39:52 | 16.06 ℃ | 68.57 % | 1020.99 hPa |
| 2026-05-08 17:29:53 | 15.98 ℃ | 70.46 % | 1021.07 hPa |
| 2026-05-08 17:19:52 | 16.16 ℃ | 71.1 % | 1021.1 hPa |
| 2026-05-08 17:09:52 | 16.12 ℃ | 72.02 % | 1021.09 hPa |
| 2026-05-08 16:59:52 | 15.9 ℃ | 72.72 % | 1021.1 hPa |
| 2026-05-08 16:49:52 | 15.93 ℃ | 71.15 % | 1021.14 hPa |
| 2026-05-08 16:39:53 | 15.95 ℃ | 66.86 % | 1021.17 hPa |
| 2026-05-08 16:29:52 | 15.94 ℃ | 63.9 % | 1021.17 hPa |
| 2026-05-08 16:19:52 | 16.19 ℃ | 60.08 % | 1021.28 hPa |
| 2026-05-08 16:09:52 | 16.6 ℃ | 57.09 % | 1021.31 hPa |
| 2026-05-08 15:59:52 | 16.53 ℃ | 55.61 % | 1021.33 hPa |
| 2026-05-08 15:49:53 | 16.66 ℃ | 53.56 % | 1021.38 hPa |
| 2026-05-08 15:39:52 | 16.41 ℃ | 52.18 % | 1021.47 hPa |
| 2026-05-08 15:29:52 | 16.35 ℃ | 49.82 % | 1021.57 hPa |
| 2026-05-08 15:19:52 | 16.6 ℃ | 47.95 % | 1021.67 hPa |
| 2026-05-08 15:09:52 | 16.85 ℃ | 46.65 % | 1021.64 hPa |
| 2026-05-08 14:59:52 | 17.04 ℃ | 45.23 % | 1021.54 hPa |
| 2026-05-08 14:49:52 | 16.87 ℃ | 44.89 % | 1021.57 hPa |
| 2026-05-08 14:39:52 | 16.73 ℃ | 44.57 % | 1021.63 hPa |
| 2026-05-08 14:29:52 | 16.69 ℃ | 44.53 % | 1021.61 hPa |
| 2026-05-08 14:19:52 | 17.27 ℃ | 43.63 % | 1021.54 hPa |
| 2026-05-08 14:09:52 | 17.54 ℃ | 42.8 % | 1021.53 hPa |
| 2026-05-08 13:59:52 | 17.25 ℃ | 41.39 % | 1021.55 hPa |
| 2026-05-08 13:49:52 | 16.95 ℃ | 40.52 % | 1021.51 hPa |
| 2026-05-08 13:39:52 | 17.03 ℃ | 40.37 % | 1021.53 hPa |
| 2026-05-08 13:29:52 | 17.18 ℃ | 40.74 % | 1021.51 hPa |
| 2026-05-08 13:19:52 | 17.23 ℃ | 44.03 % | 1021.5 hPa |
| 2026-05-08 13:09:54 | 17.3 ℃ | 49.07 % | 1021.53 hPa |
| 2026-05-08 12:59:52 | 17.04 ℃ | 52.29 % | 1021.56 hPa |
| 2026-05-08 12:49:52 | 17.17 ℃ | 55.57 % | 1021.62 hPa |
| 2026-05-08 12:39:52 | 16.68 ℃ | 58.98 % | 1021.71 hPa |
| 2026-05-08 12:29:52 | 17.14 ℃ | 59.19 % | 1021.71 hPa |
| 2026-05-08 12:19:55 | 16.83 ℃ | 59.65 % | 1021.75 hPa |
| 2026-05-08 12:09:52 | 16.78 ℃ | 60.56 % | 1021.81 hPa |
| 2026-05-08 11:59:52 | 17.17 ℃ | 59.92 % | 1021.78 hPa |
| 2026-05-08 11:49:52 | 17.19 ℃ | 60.52 % | 1021.78 hPa |
| 2026-05-08 11:39:53 | 17.71 ℃ | 59.67 % | 1021.78 hPa |
| 2026-05-08 11:29:52 | 16.61 ℃ | 60.58 % | 1021.8 hPa |
| 2026-05-08 11:19:53 | 16.7 ℃ | 60.54 % | 1021.8 hPa |
| 2026-05-08 11:09:52 | 17.52 ℃ | 60.65 % | 1021.8 hPa |
| 2026-05-08 10:59:52 | 17.38 ℃ | 64.95 % | 1021.78 hPa |
| 2026-05-08 10:49:52 | 17.59 ℃ | 67.21 % | 1021.77 hPa |
| 2026-05-08 10:39:53 | 17.2 ℃ | 69.59 % | 1021.75 hPa |
| 2026-05-08 10:29:53 | 16.48 ℃ | 73.28 % | 1021.77 hPa |
| 2026-05-08 10:19:53 | 15.49 ℃ | 77.83 % | 1021.79 hPa |
| 2026-05-08 10:09:52 | 15.67 ℃ | 75.74 % | 1021.8 hPa |
| 2026-05-08 09:59:53 | 15.62 ℃ | 73.18 % | 1021.81 hPa |
| 2026-05-08 09:49:53 | 15.94 ℃ | 68.66 % | 1021.82 hPa |
| 2026-05-08 09:39:53 | 16.07 ℃ | 63.63 % | 1021.8 hPa |
| 2026-05-08 09:29:53 | 16.43 ℃ | 61.66 % | 1021.75 hPa |
| 2026-05-08 09:19:53 | 17.51 ℃ | 55.6 % | 1021.75 hPa |
| 2026-05-08 09:09:53 | 19.25 ℃ | 50.66 % | 1021.62 hPa |
| 2026-05-08 08:59:53 | 19.38 ℃ | 51.17 % | 1021.52 hPa |
| 2026-05-08 08:49:52 | 19.51 ℃ | 53.14 % | 1021.43 hPa |
| 2026-05-08 08:39:52 | 19.46 ℃ | 54.47 % | 1021.33 hPa |
| 2026-05-08 08:29:53 | 19.05 ℃ | 59.33 % | 1021.27 hPa |
| 2026-05-08 08:19:52 | 18.39 ℃ | 65.42 % | 1021.21 hPa |
| 2026-05-08 08:09:53 | 17.57 ℃ | 72.1 % | 1021.15 hPa |
| 2026-05-08 07:59:52 | 16.97 ℃ | 75.48 % | 1021.08 hPa |
| 2026-05-08 07:49:53 | 16.29 ℃ | 77.05 % | 1021.01 hPa |
| 2026-05-08 07:39:52 | 17.04 ℃ | 76.3 % | 1021.02 hPa |
| 2026-05-08 07:29:53 | 17.43 ℃ | 76.42 % | 1021 hPa |
| 2026-05-08 07:19:52 | 17.6 ℃ | 77.94 % | 1020.94 hPa |
| 2026-05-08 07:09:53 | 17.25 ℃ | 79.79 % | 1020.9 hPa |
| 2026-05-08 06:59:53 | 17.43 ℃ | 80.06 % | 1020.82 hPa |
| 2026-05-08 06:49:53 | 16.65 ℃ | 84.36 % | 1020.77 hPa |
| 2026-05-08 06:39:53 | 16.57 ℃ | 84.77 % | 1020.74 hPa |
| 2026-05-08 06:29:53 | 16 ℃ | 86.49 % | 1020.67 hPa |
| 2026-05-08 06:19:53 | 16.22 ℃ | 84.78 % | 1020.62 hPa |
| 2026-05-08 06:09:53 | 15.28 ℃ | 89.88 % | 1020.56 hPa |
| 2026-05-08 05:59:53 | 14.73 ℃ | 91.48 % | 1020.55 hPa |
| 2026-05-08 05:49:53 | 14.23 ℃ | 94.9 % | 1020.55 hPa |
| 2026-05-08 05:39:53 | 14.41 ℃ | 93.46 % | 1020.54 hPa |
| 2026-05-08 05:29:53 | 14.53 ℃ | 92.25 % | 1020.52 hPa |
| 2026-05-08 05:19:53 | 14.64 ℃ | 91.61 % | 1020.51 hPa |
| 2026-05-08 05:09:53 | 14.38 ℃ | 94.18 % | 1020.47 hPa |
| 2026-05-08 04:59:53 | 14.14 ℃ | 96.16 % | 1020.43 hPa |
| 2026-05-08 04:49:53 | 13.92 ℃ | 98.48 % | 1020.4 hPa |
| 2026-05-08 04:39:53 | 13.93 ℃ | 97.59 % | 1020.33 hPa |
| 2026-05-08 04:29:53 | 13.86 ℃ | 97.55 % | 1020.34 hPa |
| 2026-05-08 04:19:53 | 13.78 ℃ | 97.33 % | 1020.32 hPa |
| 2026-05-08 04:09:53 | 13.64 ℃ | 96.58 % | 1020.29 hPa |
| 2026-05-08 03:59:53 | 13.45 ℃ | 95.82 % | 1020.31 hPa |
| 2026-05-08 03:49:53 | 13.44 ℃ | 94.65 % | 1020.26 hPa |
| 2026-05-08 03:39:53 | 13.22 ℃ | 95.26 % | 1020.26 hPa |
| 2026-05-08 03:29:53 | 13.4 ℃ | 94.74 % | 1020.25 hPa |
| 2026-05-08 03:19:53 | 13.66 ℃ | 94.08 % | 1020.23 hPa |
| 2026-05-08 03:09:53 | 14.19 ℃ | 91.98 % | 1020.2 hPa |
| 2026-05-08 02:59:53 | 14.19 ℃ | 92.27 % | 1020.17 hPa |
| 2026-05-08 02:49:53 | 14.64 ℃ | 91.16 % | 1020.09 hPa |
| 2026-05-08 02:39:53 | 14.92 ℃ | 90.58 % | 1020.05 hPa |
| 2026-05-08 02:29:53 | 14.98 ℃ | 92.15 % | 1020.06 hPa |
| 2026-05-08 02:19:53 | 15.19 ℃ | 93.24 % | 1020.06 hPa |
| 2026-05-08 02:09:53 | 15.28 ℃ | 95.47 % | 1020.06 hPa |
| 2026-05-08 01:59:53 | 15.24 ℃ | 98.05 % | 1020.07 hPa |
| 2026-05-08 01:49:54 | 15.06 ℃ | 98.66 % | 1020.06 hPa |
| 2026-05-08 01:39:53 | 14.51 ℃ | 99.99 % | 1020.06 hPa |
| 2026-05-08 01:29:53 | 13.76 ℃ | 99.98 % | 1020.05 hPa |
| 2026-05-08 01:19:54 | 13.7 ℃ | 99.96 % | 1020.02 hPa |
| 2026-05-08 01:09:53 | 14.15 ℃ | 99.91 % | 1019.98 hPa |
| 2026-05-08 00:59:53 | 14.11 ℃ | 99.83 % | 1019.99 hPa |
| 2026-05-08 00:49:53 | 13.96 ℃ | 99.65 % | 1019.98 hPa |
| 2026-05-08 00:39:53 | 13.74 ℃ | 99.3 % | 1019.97 hPa |
| 2026-05-08 00:29:53 | 13.87 ℃ | 98.61 % | 1019.88 hPa |
| 2026-05-08 00:19:53 | 13.42 ℃ | 99.44 % | 1019.86 hPa |
| 2026-05-08 00:09:53 | 13.88 ℃ | 98.87 % | 1019.84 hPa |
| 2026-05-07 23:59:53 | 13.84 ℃ | 97.74 % | 1019.81 hPa |
| 2026-05-07 23:49:53 | 14.32 ℃ | 95.48 % | 1019.75 hPa |
| 2026-05-07 23:39:53 | 14.48 ℃ | 93.15 % | 1019.73 hPa |
| 2026-05-07 23:29:53 | 14.4 ℃ | 95.21 % | 1019.71 hPa |
| 2026-05-07 23:19:53 | 14.12 ℃ | 99.81 % | 1019.68 hPa |
| 2026-05-07 23:09:53 | 14.01 ℃ | 99.9 % | 1019.64 hPa |
| 2026-05-07 22:59:53 | 13.99 ℃ | 99.8 % | 1019.6 hPa |
| 2026-05-07 22:49:53 | 14.04 ℃ | 99.59 % | 1019.56 hPa |
| 2026-05-07 22:39:53 | 13.99 ℃ | 99.18 % | 1019.48 hPa |
| 2026-05-07 22:29:54 | 14.02 ℃ | 98.36 % | 1019.43 hPa |
| 2026-05-07 22:19:53 | 14.55 ℃ | 96.72 % | 1019.38 hPa |
| 2026-05-07 22:09:53 | 14.55 ℃ | 93.44 % | 1019.33 hPa |
| 2026-05-07 21:59:54 | 14.55 ℃ | 88.14 % | 1019.25 hPa |
| 2026-05-07 21:49:54 | 14.13 ℃ | 84.81 % | 1019.18 hPa |
| 2026-05-07 21:39:54 | 14.24 ℃ | 79.56 % | 1019.14 hPa |
| 2026-05-07 21:29:53 | 14.46 ℃ | 78 % | 1019.04 hPa |
| 2026-05-07 21:19:53 | 14.82 ℃ | 76.97 % | 1018.94 hPa |
| 2026-05-07 21:09:54 | 14.91 ℃ | 74.39 % | 1018.81 hPa |
| 2026-05-07 20:59:54 | 14.86 ℃ | 73.23 % | 1018.69 hPa |
| 2026-05-07 20:49:54 | 15.13 ℃ | 72.58 % | 1018.61 hPa |
| 2026-05-07 20:39:53 | 15.8 ℃ | 69.15 % | 1018.51 hPa |
| 2026-05-07 20:29:54 | 16.23 ℃ | 64 % | 1018.43 hPa |
| 2026-05-07 20:19:54 | 16.14 ℃ | 62.34 % | 1018.39 hPa |
| 2026-05-07 20:09:53 | 16.25 ℃ | 61.3 % | 1018.32 hPa |
| 2026-05-07 19:59:54 | 16.43 ℃ | 59.46 % | 1018.3 hPa |
| 2026-05-07 19:49:53 | 16.4 ℃ | 58.83 % | 1018.22 hPa |
| 2026-05-07 19:39:54 | 16.22 ℃ | 58.95 % | 1018.13 hPa |
| 2026-05-07 19:29:54 | 15.86 ℃ | 59.42 % | 1018.05 hPa |
| 2026-05-07 19:19:54 | 15.7 ℃ | 59.44 % | 1018.02 hPa |
| 2026-05-07 19:09:54 | 15.85 ℃ | 59.16 % | 1017.97 hPa |
| 2026-05-07 18:59:54 | 16.08 ℃ | 58.74 % | 1017.92 hPa |
| 2026-05-07 18:49:54 | 16.57 ℃ | 58.24 % | 1017.86 hPa |
| 2026-05-07 18:39:54 | 16.67 ℃ | 59.53 % | 1017.81 hPa |
| 2026-05-07 18:29:54 | 16.68 ℃ | 61.26 % | 1017.79 hPa |
| 2026-05-07 18:19:54 | 16.58 ℃ | 63.2 % | 1017.83 hPa |
| 2026-05-07 18:09:54 | 16.56 ℃ | 66.16 % | 1017.79 hPa |
| 2026-05-07 17:59:54 | 16.56 ℃ | 67.66 % | 1017.76 hPa |
| 2026-05-07 17:49:54 | 16.34 ℃ | 72.01 % | 1017.75 hPa |
| 2026-05-07 17:39:54 | 16.48 ℃ | 72.32 % | 1017.68 hPa |
| 2026-05-07 17:29:55 | 16.87 ℃ | 71.03 % | 1017.58 hPa |
| 2026-05-07 17:19:54 | 16.93 ℃ | 69.2 % | 1017.51 hPa |
| 2026-05-07 17:09:54 | 16.93 ℃ | 69.08 % | 1017.44 hPa |
| 2026-05-07 16:59:54 | 16.32 ℃ | 76.21 % | 1017.49 hPa |
| 2026-05-07 16:49:54 | 16.54 ℃ | 76.56 % | 1017.46 hPa |
| 2026-05-07 16:39:54 | 16.01 ℃ | 79.57 % | 1017.48 hPa |
| 2026-05-07 16:29:54 | 16.07 ℃ | 80.41 % | 1017.53 hPa |
| 2026-05-07 16:19:55 | 16.18 ℃ | 81.04 % | 1017.49 hPa |
| 2026-05-07 16:09:54 | 16.47 ℃ | 82.03 % | 1017.45 hPa |
| 2026-05-07 15:59:54 | 16.41 ℃ | 81.55 % | 1017.45 hPa |
| 2026-05-07 15:49:54 | 16 ℃ | 82.92 % | 1017.47 hPa |
| 2026-05-07 15:39:54 | 15.86 ℃ | 85.24 % | 1017.43 hPa |
| 2026-05-07 15:29:54 | 16.3 ℃ | 82.98 % | 1017.38 hPa |
| 2026-05-07 15:19:54 | 16.13 ℃ | 81.79 % | 1017.38 hPa |
| 2026-05-07 15:09:54 | 16.46 ℃ | 79.34 % | 1017.23 hPa |
| 2026-05-07 14:59:54 | 16.46 ℃ | 77.11 % | 1017.18 hPa |
| 2026-05-07 14:49:54 | 16.83 ℃ | 71.62 % | 1017.11 hPa |
| 2026-05-07 14:39:54 | 17.11 ℃ | 68.26 % | 1017.07 hPa |
| 2026-05-07 14:29:54 | 16.83 ℃ | 68.05 % | 1017.02 hPa |
| 2026-05-07 14:19:54 | 16.74 ℃ | 70.23 % | 1017.01 hPa |
| 2026-05-07 14:09:54 | 17.23 ℃ | 69.16 % | 1016.97 hPa |
| 2026-05-07 13:59:54 | 16.88 ℃ | 70.98 % | 1016.96 hPa |
| 2026-05-07 13:49:54 | 16.81 ℃ | 75.46 % | 1016.97 hPa |
| 2026-05-07 13:39:54 | 16.76 ℃ | 81.22 % | 1016.98 hPa |
| 2026-05-07 13:29:54 | 16.36 ℃ | 82.57 % | 1016.94 hPa |
| 2026-05-07 13:19:54 | 16.16 ℃ | 80.54 % | 1016.93 hPa |
| 2026-05-07 13:09:55 | 15.92 ℃ | 80.74 % | 1016.89 hPa |
| 2026-05-07 12:59:55 | 15.82 ℃ | 82.03 % | 1016.91 hPa |
| 2026-05-07 12:49:54 | 15.5 ℃ | 85.68 % | 1016.94 hPa |
| 2026-05-07 12:39:54 | 15.29 ℃ | 89.45 % | 1016.88 hPa |
| 2026-05-07 12:29:55 | 15.23 ℃ | 92.99 % | 1016.82 hPa |
| 2026-05-07 12:19:54 | 15.1 ℃ | 99.05 % | 1016.78 hPa |
| 2026-05-07 12:09:55 | 15.43 ℃ | 100 % | 1016.64 hPa |
| 2026-05-07 11:59:55 | 14.94 ℃ | 100 % | 1016.63 hPa |
| 2026-05-07 11:49:55 | 14.86 ℃ | 100 % | 1016.66 hPa |
| 2026-05-07 11:39:55 | 14.58 ℃ | 100 % | 1016.55 hPa |
| 2026-05-07 11:29:54 | 14.89 ℃ | 100 % | 1016.45 hPa |
| 2026-05-07 11:19:54 | 14.76 ℃ | 100 % | 1016.43 hPa |
| 2026-05-07 11:09:54 | 14.74 ℃ | 100 % | 1016.33 hPa |
| 2026-05-07 10:59:55 | 14.79 ℃ | 100 % | 1016.21 hPa |
| 2026-05-07 10:49:54 | 15.23 ℃ | 100 % | 1016.13 hPa |
| 2026-05-07 10:39:54 | 14.93 ℃ | 100 % | 1016.13 hPa |
| 2026-05-07 10:29:56 | 15 ℃ | 100 % | 1016.06 hPa |
| 2026-05-07 10:19:54 | 14.61 ℃ | 100 % | 1015.98 hPa |
| 2026-05-07 10:09:55 | 14.68 ℃ | 100 % | 1015.89 hPa |
| 2026-05-07 09:59:54 | 15.07 ℃ | 100 % | 1015.77 hPa |
| 2026-05-07 09:49:55 | 14.66 ℃ | 100 % | 1015.7 hPa |
| 2026-05-07 09:39:55 | 14.85 ℃ | 100 % | 1015.59 hPa |
| 2026-05-07 09:29:55 | 14.07 ℃ | 100 % | 1015.59 hPa |
| 2026-05-07 09:19:55 | 13.58 ℃ | 100 % | 1015.64 hPa |
| 2026-05-07 09:09:55 | 13.59 ℃ | 100 % | 1015.58 hPa |
| 2026-05-07 08:59:56 | 13.05 ℃ | 100 % | 1015.54 hPa |
| 2026-05-07 08:49:55 | 12.68 ℃ | 100 % | 1015.48 hPa |
| 2026-05-07 08:39:55 | 12.58 ℃ | 100 % | 1015.39 hPa |
| 2026-05-07 08:29:55 | 12.74 ℃ | 100 % | 1015.33 hPa |
| 2026-05-07 08:19:55 | 12.93 ℃ | 100 % | 1015.18 hPa |
| 2026-05-07 08:09:55 | 12.98 ℃ | 100 % | 1015.09 hPa |
| 2026-05-07 07:59:55 | 12.84 ℃ | 100 % | 1014.98 hPa |
| 2026-05-07 07:49:55 | 12.66 ℃ | 100 % | 1014.95 hPa |
| 2026-05-07 07:39:55 | 12.28 ℃ | 100 % | 1014.89 hPa |
| 2026-05-07 07:29:55 | 12.51 ℃ | 100 % | 1014.77 hPa |
| 2026-05-07 07:19:55 | 12.45 ℃ | 100 % | 1014.7 hPa |
| 2026-05-07 07:09:55 | 11.88 ℃ | 100 % | 1014.66 hPa |
| 2026-05-07 06:59:55 | 11.81 ℃ | 100 % | 1014.52 hPa |
| 2026-05-07 06:49:55 | 11.75 ℃ | 100 % | 1014.43 hPa |
| 2026-05-07 06:39:56 | 11.96 ℃ | 100 % | 1014.31 hPa |
| 2026-05-07 06:29:55 | 11.25 ℃ | 100 % | 1014.28 hPa |
| 2026-05-07 06:19:55 | 11.19 ℃ | 100 % | 1014.2 hPa |
| 2026-05-07 06:09:55 | 11.7 ℃ | 100 % | 1014.13 hPa |
| 2026-05-07 05:59:55 | 11.49 ℃ | 100 % | 1014.06 hPa |
| 2026-05-07 05:49:55 | 10.47 ℃ | 100 % | 1014.05 hPa |
| 2026-05-07 05:39:55 | 10.43 ℃ | 100 % | 1014 hPa |
| 2026-05-07 05:29:55 | 10.45 ℃ | 100 % | 1013.97 hPa |
| 2026-05-07 05:19:55 | 10.66 ℃ | 100 % | 1013.91 hPa |
| 2026-05-07 05:09:55 | 11.02 ℃ | 100 % | 1013.87 hPa |
| 2026-05-07 04:59:55 | 10.98 ℃ | 100 % | 1013.78 hPa |
| 2026-05-07 04:49:55 | 10.68 ℃ | 100 % | 1013.71 hPa |
| 2026-05-07 04:39:55 | 10.8 ℃ | 100 % | 1013.61 hPa |
| 2026-05-07 04:29:55 | 10.66 ℃ | 100 % | 1013.52 hPa |
| 2026-05-07 04:19:55 | 10.81 ℃ | 100 % | 1013.47 hPa |
| 2026-05-07 04:09:55 | 10.71 ℃ | 100 % | 1013.44 hPa |
| 2026-05-07 03:59:55 | 10.59 ℃ | 100 % | 1013.41 hPa |
| 2026-05-07 03:49:55 | 10.4 ℃ | 100 % | 1013.36 hPa |
| 2026-05-07 03:39:55 | 10.74 ℃ | 100 % | 1013.27 hPa |
| 2026-05-07 03:29:55 | 10.66 ℃ | 100 % | 1013.2 hPa |
| 2026-05-07 03:19:55 | 10.62 ℃ | 100 % | 1013.18 hPa |
| 2026-05-07 03:09:55 | 10.62 ℃ | 100 % | 1013.12 hPa |
| 2026-05-07 02:59:55 | 10.99 ℃ | 100 % | 1013.06 hPa |
| 2026-05-07 02:49:55 | 11.15 ℃ | 100 % | 1013.06 hPa |
| 2026-05-07 02:39:55 | 11.08 ℃ | 100 % | 1013 hPa |
| 2026-05-07 02:29:55 | 11.06 ℃ | 100 % | 1012.97 hPa |
| 2026-05-07 02:19:55 | 11.36 ℃ | 100 % | 1012.9 hPa |
| 2026-05-07 02:09:55 | 11.36 ℃ | 100 % | 1012.89 hPa |
| 2026-05-07 01:59:55 | 11.51 ℃ | 100 % | 1012.87 hPa |
| 2026-05-07 01:49:55 | 11.55 ℃ | 100 % | 1012.89 hPa |
| 2026-05-07 01:39:55 | 11.48 ℃ | 100 % | 1012.85 hPa |
| 2026-05-07 01:29:55 | 11.69 ℃ | 100 % | 1012.8 hPa |
| 2026-05-07 01:19:56 | 11.42 ℃ | 100 % | 1012.73 hPa |
| 2026-05-07 01:09:55 | 11.16 ℃ | 100 % | 1012.68 hPa |
| 2026-05-07 00:59:55 | 11.24 ℃ | 100 % | 1012.59 hPa |
| 2026-05-07 00:49:55 | 11.39 ℃ | 100 % | 1012.57 hPa |
| 2026-05-07 00:39:55 | 11.41 ℃ | 100 % | 1012.61 hPa |
| 2026-05-07 00:29:55 | 11.2 ℃ | 100 % | 1012.58 hPa |
| 2026-05-07 00:19:56 | 11.6 ℃ | 100 % | 1012.53 hPa |
| 2026-05-07 00:09:55 | 11.78 ℃ | 100 % | 1012.48 hPa |
| 2026-05-06 23:59:55 | 11.6 ℃ | 100 % | 1012.45 hPa |
| 2026-05-06 23:49:55 | 11.81 ℃ | 100 % | 1012.42 hPa |
| 2026-05-06 23:39:56 | 11.82 ℃ | 100 % | 1012.38 hPa |
| 2026-05-06 23:29:57 | 12.03 ℃ | 100 % | 1012.3 hPa |
| 2026-05-06 23:19:55 | 11.64 ℃ | 100 % | 1012.3 hPa |
| 2026-05-06 23:09:55 | 11.73 ℃ | 100 % | 1012.27 hPa |
| 2026-05-06 22:59:56 | 11.77 ℃ | 100 % | 1012.21 hPa |
| 2026-05-06 22:49:57 | 12.02 ℃ | 100 % | 1012.16 hPa |
| 2026-05-06 22:39:58 | 11.92 ℃ | 100 % | 1012.11 hPa |
| 2026-05-06 22:29:56 | 11.77 ℃ | 100 % | 1012.08 hPa |
| 2026-05-06 22:19:55 | 11.88 ℃ | 100 % | 1012.03 hPa |
| 2026-05-06 22:09:56 | 11.89 ℃ | 100 % | 1011.91 hPa |
| 2026-05-06 21:59:56 | 12.26 ℃ | 100 % | 1011.81 hPa |
| 2026-05-06 21:49:56 | 12.13 ℃ | 100 % | 1011.71 hPa |
| 2026-05-06 21:39:56 | 12.51 ℃ | 100 % | 1011.6 hPa |
| 2026-05-06 21:29:56 | 12.6 ℃ | 100 % | 1011.49 hPa |
| 2026-05-06 21:19:56 | 12.61 ℃ | 100 % | 1011.43 hPa |
| 2026-05-06 21:09:56 | 13.03 ℃ | 100 % | 1011.28 hPa |
| 2026-05-06 20:59:56 | 12.86 ℃ | 100 % | 1011.21 hPa |
| 2026-05-06 20:49:56 | 13.14 ℃ | 100 % | 1011.08 hPa |
| 2026-05-06 20:39:56 | 13.25 ℃ | 100 % | 1010.96 hPa |
| 2026-05-06 20:29:57 | 13.59 ℃ | 100 % | 1010.84 hPa |
| 2026-05-06 20:19:56 | 13.4 ℃ | 100 % | 1010.71 hPa |
| 2026-05-06 20:09:56 | 13.07 ℃ | 100 % | 1010.64 hPa |
| 2026-05-06 19:59:57 | 13.03 ℃ | 100 % | 1010.56 hPa |
| 2026-05-06 19:49:56 | 13.36 ℃ | 100 % | 1010.49 hPa |
| 2026-05-06 19:39:56 | 13.61 ℃ | 100 % | 1010.44 hPa |
| 2026-05-06 19:29:56 | 13.97 ℃ | 100 % | 1010.33 hPa |
| 2026-05-06 19:19:56 | 14.17 ℃ | 100 % | 1010.25 hPa |
| 2026-05-06 19:09:56 | 15.06 ℃ | 100 % | 1010.17 hPa |
| 2026-05-06 18:59:56 | 14.96 ℃ | 100 % | 1010.09 hPa |
| 2026-05-06 18:49:56 | 15.24 ℃ | 100 % | 1010.03 hPa |
| 2026-05-06 18:39:56 | 15.13 ℃ | 100 % | 1010 hPa |
| 2026-05-06 18:29:57 | 15.56 ℃ | 100 % | 1009.97 hPa |
| 2026-05-06 18:19:56 | 15.53 ℃ | 100 % | 1009.96 hPa |
| 2026-05-06 18:09:56 | 15.19 ℃ | 99.99 % | 1009.99 hPa |
| 2026-05-06 17:59:56 | 15.19 ℃ | 99.99 % | 1010 hPa |
| 2026-05-06 17:49:56 | 15.09 ℃ | 99.97 % | 1010.06 hPa |
| 2026-05-06 17:39:57 | 15.57 ℃ | 99.95 % | 1010.08 hPa |
| 2026-05-06 17:29:56 | 15.41 ℃ | 99.89 % | 1010.08 hPa |
| 2026-05-06 17:19:56 | 15.59 ℃ | 99.78 % | 1010.03 hPa |
| 2026-05-06 17:09:56 | 15.61 ℃ | 99.57 % | 1010.02 hPa |
| 2026-05-06 16:59:56 | 15.86 ℃ | 99.14 % | 1009.97 hPa |
| 2026-05-06 16:49:56 | 15.7 ℃ | 98.27 % | 1009.98 hPa |
| 2026-05-06 16:39:56 | 15.76 ℃ | 96.54 % | 1009.95 hPa |
| 2026-05-06 16:29:56 | 16.1 ℃ | 93.08 % | 1009.86 hPa |
| 2026-05-06 16:19:56 | 15.82 ℃ | 86.16 % | 1009.91 hPa |
| 2026-05-06 16:09:56 | 16.36 ℃ | 76.37 % | 1009.87 hPa |
| 2026-05-06 15:59:56 | 16.04 ℃ | 76.59 % | 1009.9 hPa |
| 2026-05-06 15:49:56 | 16.08 ℃ | 79.69 % | 1009.87 hPa |
| 2026-05-06 15:39:56 | 15.84 ℃ | 79.02 % | 1009.88 hPa |
| 2026-05-06 15:29:56 | 15.89 ℃ | 78.41 % | 1009.92 hPa |
| 2026-05-06 15:19:56 | 15.96 ℃ | 76.62 % | 1009.9 hPa |
| 2026-05-06 15:09:57 | 16.04 ℃ | 76.72 % | 1009.88 hPa |
| 2026-05-06 14:59:56 | 15.93 ℃ | 77.19 % | 1009.93 hPa |
| 2026-05-06 14:49:56 | 15.79 ℃ | 76.15 % | 1009.96 hPa |
| 2026-05-06 14:39:56 | 15.62 ℃ | 76.13 % | 1009.97 hPa |
| 2026-05-06 14:29:56 | 15.59 ℃ | 75.68 % | 1009.9 hPa |
| 2026-05-06 14:19:56 | 15.33 ℃ | 77.95 % | 1009.9 hPa |
| 2026-05-06 14:09:56 | 15.28 ℃ | 77.29 % | 1009.81 hPa |
| 2026-05-06 13:59:56 | 14.93 ℃ | 76.28 % | 1009.84 hPa |
| 2026-05-06 13:49:56 | 14.74 ℃ | 75.9 % | 1009.82 hPa |
| 2026-05-06 13:39:56 | 15.02 ℃ | 71.47 % | 1009.8 hPa |
| 2026-05-06 13:29:56 | 15.2 ℃ | 68.95 % | 1009.62 hPa |
| 2026-05-06 13:19:57 | 15.19 ℃ | 67.1 % | 1009.64 hPa |
| 2026-05-06 13:09:57 | 15.21 ℃ | 67.14 % | 1009.64 hPa |
| 2026-05-06 12:59:56 | 14.91 ℃ | 68.15 % | 1009.65 hPa |
| 2026-05-06 12:49:58 | 15.1 ℃ | 69.48 % | 1009.64 hPa |
| 2026-05-06 12:39:56 | 15.28 ℃ | 70.61 % | 1009.67 hPa |
| 2026-05-06 12:29:56 | 15.08 ℃ | 73.68 % | 1009.76 hPa |
| 2026-05-06 12:19:57 | 15.23 ℃ | 77.62 % | 1009.82 hPa |
| 2026-05-06 12:09:57 | 15.23 ℃ | 78.25 % | 1009.84 hPa |
| 2026-05-06 11:59:57 | 15.15 ℃ | 75.67 % | 1009.9 hPa |
| 2026-05-06 11:49:56 | 15.15 ℃ | 74.68 % | 1009.86 hPa |
| 2026-05-06 11:39:57 | 15.04 ℃ | 77.98 % | 1009.88 hPa |
| 2026-05-06 11:29:56 | 14.72 ℃ | 80.79 % | 1009.95 hPa |
| 2026-05-06 11:19:57 | 14.92 ℃ | 82.65 % | 1009.9 hPa |
| 2026-05-06 11:09:57 | 14.83 ℃ | 82.45 % | 1009.88 hPa |
| 2026-05-06 10:59:56 | 14.78 ℃ | 82.82 % | 1009.82 hPa |
| 2026-05-06 10:49:58 | 15.2 ℃ | 79.27 % | 1009.76 hPa |
| 2026-05-06 10:39:56 | 14.92 ℃ | 76.15 % | 1009.77 hPa |
| 2026-05-06 10:29:57 | 14.48 ℃ | 75.9 % | 1009.8 hPa |
| 2026-05-06 10:19:57 | 13.65 ℃ | 76.98 % | 1009.91 hPa |
| 2026-05-06 10:09:57 | 13.71 ℃ | 77.44 % | 1009.92 hPa |
| 2026-05-06 09:59:59 | 13.72 ℃ | 78.17 % | 1009.75 hPa |
| 2026-05-06 09:49:57 | 13.6 ℃ | 79.11 % | 1009.78 hPa |
| 2026-05-06 09:39:57 | 13.7 ℃ | 80.17 % | 1009.81 hPa |
| 2026-05-06 09:29:57 | 13.56 ℃ | 80.93 % | 1009.82 hPa |
| 2026-05-06 09:19:57 | 13.35 ℃ | 82.74 % | 1009.88 hPa |
| 2026-05-06 09:09:57 | 13.31 ℃ | 85.58 % | 1009.89 hPa |
| 2026-05-06 08:59:57 | 13.29 ℃ | 90.72 % | 1009.93 hPa |
| 2026-05-06 08:49:57 | 13.05 ℃ | 98.07 % | 1009.92 hPa |
| 2026-05-06 08:39:57 | 12.82 ℃ | 100 % | 1009.93 hPa |
| 2026-05-06 08:29:57 | 12.67 ℃ | 100 % | 1009.91 hPa |
| 2026-05-06 08:19:57 | 12.57 ℃ | 100 % | 1009.91 hPa |
| 2026-05-06 08:09:57 | 12.52 ℃ | 100 % | 1009.83 hPa |
| 2026-05-06 07:59:57 | 12.36 ℃ | 100 % | 1009.84 hPa |
| 2026-05-06 07:49:57 | 12.32 ℃ | 100 % | 1009.83 hPa |
| 2026-05-06 07:39:57 | 12.28 ℃ | 100 % | 1009.8 hPa |
| 2026-05-06 07:30:00 | 12.3 ℃ | 100 % | 1009.79 hPa |
| 2026-05-06 07:19:57 | 12.23 ℃ | 100 % | 1009.8 hPa |
| 2026-05-06 07:09:57 | 12.4 ℃ | 100 % | 1009.81 hPa |
| 2026-05-06 06:59:57 | 12.18 ℃ | 100 % | 1009.83 hPa |
| 2026-05-06 06:49:57 | 11.82 ℃ | 100 % | 1009.88 hPa |
| 2026-05-06 06:39:58 | 11.88 ℃ | 100 % | 1009.84 hPa |
| 2026-05-06 06:29:57 | 11.98 ℃ | 100 % | 1009.82 hPa |
| 2026-05-06 06:19:58 | 12.04 ℃ | 100 % | 1009.83 hPa |
| 2026-05-06 06:09:57 | 11.98 ℃ | 100 % | 1009.82 hPa |
| 2026-05-06 05:59:57 | 12.08 ℃ | 100 % | 1009.86 hPa |
| 2026-05-06 05:49:57 | 12.3 ℃ | 100 % | 1009.83 hPa |
| 2026-05-06 05:39:58 | 12.11 ℃ | 100 % | 1009.85 hPa |
| 2026-05-06 05:29:57 | 12.24 ℃ | 100 % | 1009.85 hPa |
| 2026-05-06 05:19:58 | 12.26 ℃ | 100 % | 1009.88 hPa |
| 2026-05-06 05:09:57 | 12.03 ℃ | 100 % | 1009.93 hPa |
| 2026-05-06 04:59:57 | 12.21 ℃ | 100 % | 1009.95 hPa |
| 2026-05-06 04:49:57 | 12.26 ℃ | 100 % | 1009.95 hPa |
| 2026-05-06 04:39:58 | 12.3 ℃ | 100 % | 1009.97 hPa |
| 2026-05-06 04:29:58 | 12.35 ℃ | 100 % | 1010.07 hPa |
| 2026-05-06 04:19:57 | 12.17 ℃ | 100 % | 1010.15 hPa |
| 2026-05-06 04:09:58 | 12.25 ℃ | 100 % | 1010.22 hPa |
| 2026-05-06 03:59:57 | 12.3 ℃ | 100 % | 1010.31 hPa |
| 2026-05-06 03:49:58 | 12.48 ℃ | 100 % | 1010.31 hPa |
| 2026-05-06 03:39:58 | 12.76 ℃ | 100 % | 1010.33 hPa |
| 2026-05-06 03:29:58 | 13.1 ℃ | 100 % | 1010.35 hPa |
| 2026-05-06 03:19:58 | 13.14 ℃ | 100 % | 1010.33 hPa |
| 2026-05-06 03:09:58 | 13.3 ℃ | 100 % | 1010.35 hPa |
| 2026-05-06 02:59:58 | 13.52 ℃ | 100 % | 1010.37 hPa |
| 2026-05-06 02:49:58 | 13.89 ℃ | 100 % | 1010.36 hPa |
| 2026-05-06 02:39:57 | 13.57 ℃ | 100 % | 1010.41 hPa |
| 2026-05-06 02:29:57 | 13.79 ℃ | 100 % | 1010.46 hPa |
| 2026-05-06 02:19:58 | 14.06 ℃ | 100 % | 1010.48 hPa |
| 2026-05-06 02:09:58 | 13.86 ℃ | 100 % | 1010.46 hPa |
| 2026-05-06 01:59:58 | 13.76 ℃ | 100 % | 1010.47 hPa |
| 2026-05-06 01:49:57 | 13.81 ℃ | 100 % | 1010.52 hPa |
| 2026-05-06 01:39:57 | 14.12 ℃ | 100 % | 1010.58 hPa |
| 2026-05-06 01:30:00 | 13.75 ℃ | 100 % | 1010.53 hPa |
| 2026-05-06 01:19:58 | 13.95 ℃ | 100 % | 1010.47 hPa |
| 2026-05-06 01:09:58 | 13.88 ℃ | 100 % | 1010.42 hPa |
| 2026-05-06 00:59:59 | 14.13 ℃ | 100 % | 1010.45 hPa |
| 2026-05-06 00:49:58 | 13.97 ℃ | 100 % | 1010.49 hPa |
| 2026-05-06 00:39:58 | 14.16 ℃ | 100 % | 1010.52 hPa |
| 2026-05-06 00:29:58 | 14.03 ℃ | 100 % | 1010.58 hPa |
| 2026-05-06 00:19:57 | 13.82 ℃ | 100 % | 1010.67 hPa |
| 2026-05-06 00:09:58 | 13.79 ℃ | 100 % | 1010.71 hPa |
| 2026-05-05 23:59:58 | 13.7 ℃ | 100 % | 1010.79 hPa |
| 2026-05-05 23:49:58 | 14.02 ℃ | 100 % | 1010.81 hPa |
| 2026-05-05 23:39:58 | 13.95 ℃ | 100 % | 1010.88 hPa |
| 2026-05-05 23:29:58 | 13.99 ℃ | 100 % | 1010.94 hPa |
| 2026-05-05 23:19:58 | 14 ℃ | 100 % | 1010.99 hPa |
| 2026-05-05 23:09:58 | 13.98 ℃ | 100 % | 1011.04 hPa |
| 2026-05-05 22:59:58 | 13.98 ℃ | 100 % | 1011.09 hPa |
| 2026-05-05 22:49:58 | 13.84 ℃ | 100 % | 1011.14 hPa |
| 2026-05-05 22:39:58 | 13.61 ℃ | 100 % | 1011.15 hPa |
| 2026-05-05 22:30:00 | 13.97 ℃ | 100 % | 1011.13 hPa |
| 2026-05-05 22:19:58 | 13.99 ℃ | 100 % | 1011.09 hPa |
| 2026-05-05 22:09:58 | 13.56 ℃ | 100 % | 1011.14 hPa |
| 2026-05-05 21:59:58 | 13.46 ℃ | 100 % | 1011.13 hPa |
| 2026-05-05 21:49:58 | 13.62 ℃ | 100 % | 1011.15 hPa |
| 2026-05-05 21:39:58 | 13.86 ℃ | 100 % | 1011.13 hPa |
| 2026-05-05 21:29:59 | 14.14 ℃ | 100 % | 1011.05 hPa |
| 2026-05-05 21:19:58 | 14.02 ℃ | 100 % | 1010.99 hPa |
| 2026-05-05 21:09:59 | 14.11 ℃ | 100 % | 1010.92 hPa |
| 2026-05-05 20:59:59 | 14.13 ℃ | 100 % | 1010.89 hPa |
| 2026-05-05 20:49:59 | 14.51 ℃ | 100 % | 1010.84 hPa |
| 2026-05-05 20:39:58 | 14.69 ℃ | 100 % | 1010.8 hPa |
| 2026-05-05 20:29:59 | 14.6 ℃ | 100 % | 1010.84 hPa |
| 2026-05-05 20:19:58 | 14.73 ℃ | 100 % | 1010.87 hPa |
| 2026-05-05 20:09:59 | 14.86 ℃ | 100 % | 1010.89 hPa |
| 2026-05-05 19:59:58 | 14.96 ℃ | 100 % | 1010.85 hPa |
| 2026-05-05 19:49:58 | 14.82 ℃ | 100 % | 1010.89 hPa |
| 2026-05-05 19:39:58 | 14.94 ℃ | 100 % | 1010.85 hPa |
| 2026-05-05 19:29:58 | 15.13 ℃ | 100 % | 1010.84 hPa |
| 2026-05-05 19:19:58 | 15.01 ℃ | 100 % | 1010.85 hPa |
| 2026-05-05 19:09:59 | 14.84 ℃ | 99.99 % | 1010.85 hPa |
| 2026-05-05 18:59:59 | 15.23 ℃ | 99.98 % | 1010.87 hPa |
| 2026-05-05 18:49:58 | 15.37 ℃ | 99.97 % | 1010.92 hPa |
| 2026-05-05 18:39:58 | 15.79 ℃ | 99.93 % | 1010.95 hPa |
| 2026-05-05 18:29:58 | 15.51 ℃ | 99.86 % | 1011.02 hPa |
| 2026-05-05 18:19:58 | 15.68 ℃ | 99.73 % | 1011.04 hPa |
| 2026-05-05 18:09:58 | 15.94 ℃ | 99.46 % | 1011.06 hPa |
| 2026-05-05 17:59:58 | 15.97 ℃ | 98.92 % | 1011.15 hPa |
| 2026-05-05 17:49:59 | 16.22 ℃ | 97.84 % | 1011.17 hPa |
| 2026-05-05 17:39:58 | 16.14 ℃ | 95.68 % | 1011.2 hPa |
| 2026-05-05 17:29:58 | 16.42 ℃ | 92.52 % | 1011.18 hPa |
| 2026-05-05 17:19:59 | 15.9 ℃ | 91.35 % | 1011.25 hPa |
| 2026-05-05 17:09:58 | 15.69 ℃ | 95.12 % | 1011.29 hPa |
| 2026-05-05 16:59:58 | 15.86 ℃ | 95.92 % | 1011.33 hPa |
| 2026-05-05 16:49:58 | 15.6 ℃ | 99.82 % | 1011.53 hPa |
| 2026-05-05 16:39:58 | 15.98 ℃ | 99.64 % | 1011.5 hPa |
| 2026-05-05 16:29:58 | 16.12 ℃ | 99.28 % | 1011.49 hPa |
| 2026-05-05 16:19:58 | 15.97 ℃ | 98.57 % | 1011.53 hPa |
| 2026-05-05 16:09:58 | 15.81 ℃ | 100 % | 1011.6 hPa |
| 2026-05-05 15:59:58 | 15.43 ℃ | 100 % | 1011.61 hPa |
| 2026-05-05 15:49:58 | 15.42 ℃ | 100 % | 1011.65 hPa |
| 2026-05-05 15:39:59 | 15.36 ℃ | 100 % | 1011.62 hPa |
| 2026-05-05 15:29:58 | 15.37 ℃ | 100 % | 1011.71 hPa |
| 2026-05-05 15:20:00 | 15.25 ℃ | 100 % | 1011.73 hPa |
| 2026-05-05 15:09:59 | 15.45 ℃ | 100 % | 1011.71 hPa |
| 2026-05-05 14:59:59 | 15.14 ℃ | 100 % | 1011.78 hPa |
| 2026-05-05 14:49:58 | 15.31 ℃ | 99.99 % | 1011.9 hPa |
| 2026-05-05 14:39:58 | 15.12 ℃ | 99.98 % | 1011.96 hPa |
| 2026-05-05 14:29:59 | 14.98 ℃ | 99.96 % | 1011.95 hPa |
| 2026-05-05 14:19:59 | 15.02 ℃ | 99.92 % | 1011.93 hPa |
| 2026-05-05 14:09:58 | 15.29 ℃ | 99.85 % | 1011.93 hPa |
| 2026-05-05 13:59:59 | 15.12 ℃ | 99.69 % | 1011.98 hPa |
| 2026-05-05 13:50:00 | 15.23 ℃ | 99.38 % | 1011.97 hPa |
| 2026-05-05 13:39:59 | 15.07 ℃ | 98.76 % | 1011.99 hPa |
| 2026-05-05 13:30:00 | 14.84 ℃ | 100 % | 1012.05 hPa |
| 2026-05-05 13:19:58 | 14.27 ℃ | 100 % | 1012.15 hPa |
| 2026-05-05 13:09:59 | 14.12 ℃ | 100 % | 1012.25 hPa |
| 2026-05-05 12:59:59 | 14.77 ℃ | 100 % | 1012.17 hPa |
| 2026-05-05 12:49:59 | 14.88 ℃ | 100 % | 1012.26 hPa |
| 2026-05-05 12:39:58 | 14.63 ℃ | 100 % | 1012.29 hPa |
| 2026-05-05 12:29:59 | 14.35 ℃ | 100 % | 1012.33 hPa |
| 2026-05-05 12:19:59 | 13.89 ℃ | 100 % | 1012.42 hPa |
| 2026-05-05 12:10:00 | 13.85 ℃ | 100 % | 1012.46 hPa |
| 2026-05-05 11:59:59 | 14.05 ℃ | 100 % | 1012.45 hPa |
| 2026-05-05 11:49:59 | 13.8 ℃ | 100 % | 1012.49 hPa |
| 2026-05-05 11:39:59 | 13.83 ℃ | 100 % | 1012.49 hPa |
| 2026-05-05 11:29:59 | 13.68 ℃ | 100 % | 1012.54 hPa |
| 2026-05-05 11:19:59 | 13.98 ℃ | 100 % | 1012.47 hPa |
| 2026-05-05 11:09:59 | 13.96 ℃ | 100 % | 1012.44 hPa |
| 2026-05-05 10:59:59 | 13.97 ℃ | 100 % | 1012.45 hPa |
| 2026-05-05 10:50:00 | 13.53 ℃ | 100 % | 1012.47 hPa |
| 2026-05-05 10:40:00 | 13.33 ℃ | 100 % | 1012.41 hPa |
| 2026-05-05 10:29:59 | 13.04 ℃ | 100 % | 1012.43 hPa |
| 2026-05-05 10:19:59 | 13.39 ℃ | 100 % | 1012.39 hPa |
| 2026-05-05 10:09:59 | 13.19 ℃ | 100 % | 1012.38 hPa |
| 2026-05-05 10:00:00 | 13.02 ℃ | 100 % | 1012.37 hPa |
| 2026-05-05 09:49:59 | 12.74 ℃ | 100 % | 1012.41 hPa |
| 2026-05-05 09:39:59 | 12.97 ℃ | 100 % | 1012.38 hPa |
| 2026-05-05 09:29:59 | 12.93 ℃ | 100 % | 1012.44 hPa |
| 2026-05-05 09:19:59 | 12.55 ℃ | 100 % | 1012.49 hPa |
| 2026-05-05 09:09:59 | 12.64 ℃ | 100 % | 1012.51 hPa |
| 2026-05-05 08:59:59 | 12.67 ℃ | 100 % | 1012.52 hPa |
| 2026-05-05 08:49:59 | 12.63 ℃ | 100 % | 1012.54 hPa |
| 2026-05-05 08:39:59 | 12.53 ℃ | 100 % | 1012.53 hPa |
| 2026-05-05 08:29:59 | 12.41 ℃ | 100 % | 1012.54 hPa |
| 2026-05-05 08:19:59 | 12.47 ℃ | 100 % | 1012.48 hPa |
| 2026-05-05 08:09:59 | 12.73 ℃ | 100 % | 1012.43 hPa |
| 2026-05-05 07:59:59 | 12.66 ℃ | 100 % | 1012.43 hPa |
| 2026-05-05 07:49:59 | 12.65 ℃ | 100 % | 1012.47 hPa |
| 2026-05-05 07:40:00 | 12.44 ℃ | 100 % | 1012.5 hPa |
| 2026-05-05 07:29:59 | 12.75 ℃ | 100 % | 1012.48 hPa |
| 2026-05-05 07:19:59 | 12.73 ℃ | 100 % | 1012.43 hPa |
| 2026-05-05 07:09:59 | 12.59 ℃ | 100 % | 1012.47 hPa |
| 2026-05-05 07:00:00 | 12.48 ℃ | 100 % | 1012.48 hPa |
| 2026-05-05 06:49:59 | 12.64 ℃ | 100 % | 1012.43 hPa |
| 2026-05-05 06:39:59 | 12.32 ℃ | 100 % | 1012.44 hPa |
| 2026-05-05 06:29:59 | 12.06 ℃ | 100 % | 1012.4 hPa |
| 2026-05-05 06:19:59 | 11.97 ℃ | 100 % | 1012.39 hPa |
| 2026-05-05 06:09:59 | 11.9 ℃ | 100 % | 1012.37 hPa |
| 2026-05-05 05:59:59 | 12.02 ℃ | 100 % | 1012.39 hPa |
| 2026-05-05 05:49:59 | 11.99 ℃ | 100 % | 1012.4 hPa |
| 2026-05-05 05:39:59 | 12.21 ℃ | 100 % | 1012.41 hPa |
| 2026-05-05 05:29:59 | 11.73 ℃ | 100 % | 1012.44 hPa |
| 2026-05-05 05:20:00 | 11.51 ℃ | 100 % | 1012.46 hPa |
| 2026-05-05 05:09:59 | 11.27 ℃ | 100 % | 1012.49 hPa |
| 2026-05-05 04:59:59 | 11.25 ℃ | 100 % | 1012.51 hPa |
| 2026-05-05 04:49:59 | 10.95 ℃ | 100 % | 1012.59 hPa |
| 2026-05-05 04:39:59 | 11.14 ℃ | 100 % | 1012.62 hPa |
| 2026-05-05 04:29:59 | 11.04 ℃ | 100 % | 1012.66 hPa |
| 2026-05-05 04:19:59 | 11.35 ℃ | 100 % | 1012.64 hPa |
| 2026-05-05 04:09:59 | 11.64 ℃ | 100 % | 1012.64 hPa |
| 2026-05-05 03:59:59 | 11.7 ℃ | 100 % | 1012.67 hPa |
| 2026-05-05 03:49:59 | 11.71 ℃ | 100 % | 1012.73 hPa |
| 2026-05-05 03:39:59 | 12.03 ℃ | 100 % | 1012.77 hPa |
| 2026-05-05 03:30:00 | 12.39 ℃ | 100 % | 1012.85 hPa |
| 2026-05-05 03:20:00 | 12.55 ℃ | 100 % | 1012.9 hPa |
| 2026-05-05 03:09:59 | 12.68 ℃ | 100 % | 1012.89 hPa |
| 2026-05-05 02:59:59 | 13.02 ℃ | 100 % | 1012.87 hPa |
| 2026-05-05 02:49:59 | 13.56 ℃ | 100 % | 1012.9 hPa |
| 2026-05-05 02:40:00 | 14.05 ℃ | 100 % | 1012.92 hPa |
| 2026-05-05 02:29:59 | 14.38 ℃ | 100 % | 1012.99 hPa |
| 2026-05-05 02:19:59 | 14.09 ℃ | 100 % | 1013.01 hPa |
| 2026-05-05 02:09:59 | 14.1 ℃ | 100 % | 1013.09 hPa |
| 2026-05-05 01:59:59 | 13.86 ℃ | 100 % | 1013.11 hPa |
| 2026-05-05 01:49:59 | 13.47 ℃ | 100 % | 1013.12 hPa |
| 2026-05-05 01:39:59 | 13.8 ℃ | 100 % | 1013.14 hPa |
| 2026-05-05 01:30:00 | 13.83 ℃ | 100 % | 1013.13 hPa |
| 2026-05-05 01:20:00 | 13.9 ℃ | 100 % | 1013.17 hPa |
| 2026-05-05 01:10:00 | 13.89 ℃ | 100 % | 1013.24 hPa |
| 2026-05-05 01:00:00 | 14.07 ℃ | 100 % | 1013.33 hPa |
| 2026-05-05 00:50:00 | 13.81 ℃ | 100 % | 1013.39 hPa |
| 2026-05-05 00:40:00 | 13.66 ℃ | 100 % | 1013.43 hPa |
| 2026-05-05 00:30:00 | 13.62 ℃ | 100 % | 1013.48 hPa |
| 2026-05-05 00:20:00 | 13.3 ℃ | 100 % | 1013.52 hPa |
| 2026-05-05 00:10:00 | 13.89 ℃ | 100 % | 1013.59 hPa |
| 2026-05-05 00:00:00 | 13.93 ℃ | 100 % | 1013.63 hPa |
| 2026-05-04 23:50:00 | 14.04 ℃ | 100 % | 1013.69 hPa |
| 2026-05-04 23:40:00 | 14.19 ℃ | 100 % | 1013.69 hPa |
| 2026-05-04 23:30:00 | 14.7 ℃ | 100 % | 1013.65 hPa |
| 2026-05-04 23:20:00 | 15.28 ℃ | 100 % | 1013.59 hPa |
| 2026-05-04 23:10:00 | 15.46 ℃ | 100 % | 1013.54 hPa |
| 2026-05-04 23:00:00 | 16.04 ℃ | 100 % | 1013.49 hPa |
| 2026-05-04 22:50:01 | 16.26 ℃ | 100 % | 1013.45 hPa |
| 2026-05-04 22:40:00 | 16.47 ℃ | 100 % | 1013.39 hPa |
| 2026-05-04 22:30:00 | 16.44 ℃ | 100 % | 1013.33 hPa |
| 2026-05-04 22:20:00 | 16.76 ℃ | 100 % | 1013.27 hPa |
| 2026-05-04 22:10:00 | 17.17 ℃ | 100 % | 1013.22 hPa |
| 2026-05-04 22:00:00 | 17.71 ℃ | 100 % | 1013.21 hPa |
| 2026-05-04 21:50:00 | 17.9 ℃ | 100 % | 1013.15 hPa |
| 2026-05-04 21:40:00 | 18.08 ℃ | 100 % | 1013.12 hPa |
| 2026-05-04 21:30:00 | 18.43 ℃ | 100 % | 1013.13 hPa |
| 2026-05-04 21:20:00 | 18.48 ℃ | 100 % | 1013.1 hPa |
| 2026-05-04 21:10:00 | 18.35 ℃ | 100 % | 1013.02 hPa |
| 2026-05-04 21:00:00 | 18.65 ℃ | 100 % | 1012.97 hPa |
| 2026-05-04 20:50:00 | 18.78 ℃ | 100 % | 1012.9 hPa |
| 2026-05-04 20:40:00 | 18.68 ℃ | 100 % | 1012.87 hPa |
| 2026-05-04 20:30:00 | 18.67 ℃ | 100 % | 1012.83 hPa |
| 2026-05-04 20:20:01 | 18.9 ℃ | 100 % | 1012.83 hPa |
| 2026-05-04 20:10:00 | 18.98 ℃ | 100 % | 1012.81 hPa |
| 2026-05-04 20:00:00 | 19.48 ℃ | 100 % | 1012.8 hPa |
| 2026-05-04 19:50:00 | 19.5 ℃ | 100 % | 1012.76 hPa |
| 2026-05-04 19:40:00 | 19.45 ℃ | 100 % | 1012.79 hPa |
| 2026-05-04 19:30:00 | 19.51 ℃ | 100 % | 1012.79 hPa |
| 2026-05-04 19:20:00 | 19.61 ℃ | 100 % | 1012.77 hPa |
| 2026-05-04 19:10:00 | 19.73 ℃ | 100 % | 1012.72 hPa |
| 2026-05-04 19:00:00 | 19.77 ℃ | 100 % | 1012.69 hPa |
| 2026-05-04 18:50:00 | 19.84 ℃ | 100 % | 1012.69 hPa |
| 2026-05-04 18:40:00 | 19.66 ℃ | 100 % | 1012.72 hPa |
| 2026-05-04 18:30:00 | 19.55 ℃ | 100 % | 1012.75 hPa |
| 2026-05-04 18:20:00 | 19.66 ℃ | 100 % | 1012.81 hPa |
| 2026-05-04 18:10:00 | 19.59 ℃ | 100 % | 1012.86 hPa |
| 2026-05-04 18:00:00 | 19.68 ℃ | 100 % | 1012.91 hPa |
| 2026-05-04 17:50:00 | 19.98 ℃ | 100 % | 1012.9 hPa |
| 2026-05-04 17:40:00 | 20.17 ℃ | 100 % | 1012.9 hPa |
| 2026-05-04 17:30:00 | 20.65 ℃ | 100 % | 1012.9 hPa |
| 2026-05-04 17:20:00 | 20.39 ℃ | 100 % | 1012.93 hPa |
| 2026-05-04 17:10:00 | 20.58 ℃ | 100 % | 1012.99 hPa |
| 2026-05-04 17:00:01 | 20.53 ℃ | 100 % | 1013.06 hPa |
| 2026-05-04 16:50:00 | 20.58 ℃ | 100 % | 1013.12 hPa |
| 2026-05-04 16:40:01 | 20.6 ℃ | 100 % | 1013.13 hPa |
| 2026-05-04 16:30:01 | 20.34 ℃ | 100 % | 1013.16 hPa |
| 2026-05-04 16:20:01 | 20.35 ℃ | 100 % | 1013.2 hPa |
| 2026-05-04 16:10:01 | 20.43 ℃ | 100 % | 1013.25 hPa |
| 2026-05-04 16:00:00 | 19.99 ℃ | 100 % | 1013.32 hPa |
| 2026-05-04 15:50:01 | 20.07 ℃ | 100 % | 1013.29 hPa |
| 2026-05-04 15:40:01 | 20.56 ℃ | 100 % | 1013.34 hPa |
| 2026-05-04 15:30:00 | 20.65 ℃ | 100 % | 1013.42 hPa |
| 2026-05-04 15:20:01 | 20.54 ℃ | 100 % | 1013.45 hPa |
| 2026-05-04 15:10:01 | 20.38 ℃ | 100 % | 1013.42 hPa |
| 2026-05-04 15:00:01 | 20.14 ℃ | 100 % | 1013.41 hPa |
| 2026-05-04 14:50:00 | 20.32 ℃ | 100 % | 1013.33 hPa |
| 2026-05-04 14:40:00 | 19.73 ℃ | 100 % | 1013.27 hPa |
| 2026-05-04 14:30:01 | 20.25 ℃ | 100 % | 1013.18 hPa |
| 2026-05-04 14:20:02 | 19.93 ℃ | 100 % | 1013.24 hPa |
| 2026-05-04 14:10:01 | 19.98 ℃ | 100 % | 1013.24 hPa |
| 2026-05-04 14:00:01 | 19.81 ℃ | 100 % | 1013.15 hPa |
| 2026-05-04 13:50:02 | 19.74 ℃ | 100 % | 1013.04 hPa |
| 2026-05-04 13:40:01 | 19.99 ℃ | 100 % | 1012.95 hPa |
| 2026-05-04 13:30:01 | 20.02 ℃ | 100 % | 1012.92 hPa |
| 2026-05-04 13:20:01 | 19.9 ℃ | 100 % | 1012.97 hPa |
| 2026-05-04 13:10:01 | 19.81 ℃ | 100 % | 1013.01 hPa |
| 2026-05-04 13:00:01 | 19.53 ℃ | 100 % | 1013 hPa |
| 2026-05-04 12:50:01 | 19.91 ℃ | 100 % | 1012.97 hPa |
| 2026-05-04 12:40:01 | 19.78 ℃ | 100 % | 1012.99 hPa |
| 2026-05-04 12:30:01 | 19.52 ℃ | 100 % | 1012.93 hPa |
| 2026-05-04 12:20:01 | 19.39 ℃ | 100 % | 1012.99 hPa |
| 2026-05-04 12:10:01 | 19.34 ℃ | 100 % | 1012.97 hPa |
| 2026-05-04 12:00:01 | 19.03 ℃ | 100 % | 1012.93 hPa |
| 2026-05-04 11:50:01 | 19.1 ℃ | 100 % | 1012.86 hPa |
| 2026-05-04 11:40:01 | 18.55 ℃ | 100 % | 1012.89 hPa |
| 2026-05-04 11:30:01 | 18.59 ℃ | 100 % | 1012.86 hPa |
| 2026-05-04 11:20:02 | 18.49 ℃ | 100 % | 1012.84 hPa |
| 2026-05-04 11:10:02 | 18.68 ℃ | 100 % | 1012.86 hPa |
| 2026-05-04 11:00:01 | 18.36 ℃ | 100 % | 1012.8 hPa |
| 2026-05-04 10:50:01 | 18.18 ℃ | 100 % | 1012.75 hPa |
| 2026-05-04 10:40:01 | 18.17 ℃ | 100 % | 1012.64 hPa |
| 2026-05-04 10:30:01 | 18.64 ℃ | 100 % | 1012.52 hPa |
| 2026-05-04 10:20:01 | 18.22 ℃ | 100 % | 1012.46 hPa |
| 2026-05-04 10:10:01 | 18.37 ℃ | 100 % | 1012.4 hPa |
| 2026-05-04 10:00:01 | 18 ℃ | 100 % | 1012.31 hPa |
| 2026-05-04 09:50:01 | 18.25 ℃ | 100 % | 1012.21 hPa |
| 2026-05-04 09:40:01 | 18.07 ℃ | 100 % | 1012.15 hPa |
| 2026-05-04 09:30:01 | 17.85 ℃ | 100 % | 1012.05 hPa |
| 2026-05-04 09:20:01 | 17.81 ℃ | 100 % | 1011.94 hPa |
| 2026-05-04 09:10:01 | 17.42 ℃ | 100 % | 1011.88 hPa |
| 2026-05-04 09:00:01 | 16.99 ℃ | 100 % | 1011.71 hPa |
| 2026-05-04 08:50:01 | 16.17 ℃ | 100 % | 1011.64 hPa |
| 2026-05-04 08:40:01 | 16.44 ℃ | 100 % | 1011.52 hPa |
| 2026-05-04 08:30:01 | 16.15 ℃ | 100 % | 1011.45 hPa |
| 2026-05-04 08:20:01 | 16.26 ℃ | 100 % | 1011.26 hPa |
| 2026-05-04 08:10:01 | 15.93 ℃ | 100 % | 1011.21 hPa |
| 2026-05-04 08:00:01 | 15.6 ℃ | 100 % | 1011.11 hPa |
| 2026-05-04 07:50:02 | 15.54 ℃ | 100 % | 1011 hPa |
| 2026-05-04 07:40:01 | 15.46 ℃ | 100 % | 1010.85 hPa |
| 2026-05-04 07:30:01 | 15.42 ℃ | 100 % | 1010.73 hPa |
| 2026-05-04 07:20:01 | 15.43 ℃ | 100 % | 1010.61 hPa |
| 2026-05-04 07:10:01 | 15.55 ℃ | 100 % | 1010.49 hPa |
| 2026-05-04 07:00:01 | 15.44 ℃ | 100 % | 1010.38 hPa |
| 2026-05-04 06:50:01 | 15.44 ℃ | 100 % | 1010.22 hPa |
| 2026-05-04 06:40:01 | 15.36 ℃ | 100 % | 1010.1 hPa |
| 2026-05-04 06:30:01 | 15.35 ℃ | 100 % | 1010.03 hPa |
| 2026-05-04 06:20:01 | 15.44 ℃ | 100 % | 1009.99 hPa |
| 2026-05-04 06:10:01 | 15.3 ℃ | 100 % | 1009.9 hPa |
| 2026-05-04 06:00:01 | 15.31 ℃ | 100 % | 1009.79 hPa |
| 2026-05-04 05:50:01 | 15.12 ℃ | 100 % | 1009.7 hPa |
| 2026-05-04 05:40:02 | 15.35 ℃ | 100 % | 1009.66 hPa |
| 2026-05-04 05:30:01 | 15.5 ℃ | 100 % | 1009.62 hPa |
| 2026-05-04 05:20:01 | 15.45 ℃ | 100 % | 1009.57 hPa |
| 2026-05-04 05:10:01 | 15.87 ℃ | 100 % | 1009.46 hPa |
| 2026-05-04 05:00:02 | 16.16 ℃ | 100 % | 1009.3 hPa |
| 2026-05-04 04:50:01 | 16.56 ℃ | 100 % | 1009.17 hPa |
| 2026-05-04 04:40:02 | 16.78 ℃ | 100 % | 1009.14 hPa |
| 2026-05-04 04:30:02 | 16.89 ℃ | 100 % | 1009.1 hPa |
| 2026-05-04 04:20:01 | 16.78 ℃ | 100 % | 1009.09 hPa |
| 2026-05-04 04:10:02 | 16.94 ℃ | 100 % | 1009.08 hPa |
| 2026-05-04 04:00:01 | 17.28 ℃ | 100 % | 1009.13 hPa |
| 2026-05-04 03:50:01 | 17.47 ℃ | 100 % | 1009.24 hPa |
| 2026-05-04 03:40:01 | 17.41 ℃ | 100 % | 1009.52 hPa |
| 2026-05-04 03:30:01 | 16.72 ℃ | 100 % | 1010.15 hPa |
| 2026-05-04 03:20:01 | 15.29 ℃ | 100 % | 1011.34 hPa |
| 2026-05-04 03:10:01 | 12.73 ℃ | 100 % | 1013.78 hPa |
| 2026-05-04 03:00:02 | 7.85 ℃ | 100 % | 1018.56 hPa |
| 2026-05-04 02:50:01 | -2.26 ℃ | 100 % | 1028.15 hPa |
| 2026-05-04 02:40:02 | -22.33 ℃ | 100 % | 1047.35 hPa |
| 2026-05-04 02:30:02 | -63.25 ℃ | 100 % | 1085.81 hPa |
| 2026-05-04 02:20:02 | 18.77 ℃ | 100 % | 1008.87 hPa |
| 2026-05-04 02:10:02 | 18.64 ℃ | 100 % | 1008.88 hPa |
| 2026-05-04 02:00:02 | 19.06 ℃ | 100 % | 1008.89 hPa |
| 2026-05-04 01:50:02 | 19.37 ℃ | 100 % | 1008.88 hPa |
| 2026-05-04 01:40:02 | 19.35 ℃ | 100 % | 1008.9 hPa |
| 2026-05-04 01:30:02 | 19.39 ℃ | 100 % | 1008.93 hPa |
| 2026-05-04 01:20:02 | 19.65 ℃ | 100 % | 1008.94 hPa |
| 2026-05-04 01:10:02 | 19.86 ℃ | 100 % | 1008.96 hPa |
| 2026-05-04 01:00:02 | 19.99 ℃ | 100 % | 1009.06 hPa |
| 2026-05-04 00:50:02 | 19.89 ℃ | 100 % | 1009.21 hPa |
| 2026-05-04 00:40:02 | 19.55 ℃ | 100 % | 1009.52 hPa |
| 2026-05-04 00:30:02 | 18.71 ℃ | 100 % | 1010.11 hPa |
| 2026-05-04 00:20:02 | 17.34 ℃ | 100 % | 1011.3 hPa |
| 2026-05-04 00:10:02 | 14.62 ℃ | 100 % | 1013.7 hPa |
| 2026-05-04 00:00:02 | 9.7 ℃ | 100 % | 1018.51 hPa |
| 2026-05-03 23:50:02 | -0.44 ℃ | 100 % | 1028.07 hPa |
| 2026-05-03 23:40:02 | -21.26 ℃ | 100 % | 1047.35 hPa |
| 2026-05-03 23:30:02 | -62.49 ℃ | 100 % | 1085.82 hPa |
| 2026-05-03 23:20:02 | 20.29 ℃ | 100 % | 1008.88 hPa |
| 2026-05-03 23:10:02 | 20.62 ℃ | 100 % | 1008.83 hPa |
| 2026-05-03 23:00:02 | 20.7 ℃ | 100 % | 1008.8 hPa |
| 2026-05-03 22:50:02 | 20.69 ℃ | 100 % | 1008.77 hPa |
| 2026-05-03 22:40:02 | 20.42 ℃ | 100 % | 1008.73 hPa |
| 2026-05-03 22:30:02 | 20.44 ℃ | 100 % | 1008.66 hPa |
| 2026-05-03 22:20:02 | 20.85 ℃ | 100 % | 1008.65 hPa |
| 2026-05-03 22:10:02 | 20.67 ℃ | 100 % | 1008.72 hPa |
| 2026-05-03 22:00:02 | 20.82 ℃ | 100 % | 1008.72 hPa |
| 2026-05-03 21:50:02 | 20.88 ℃ | 100 % | 1008.67 hPa |
| 2026-05-03 21:40:02 | 20.32 ℃ | 100 % | 1008.59 hPa |
| 2026-05-03 21:30:03 | 19.7 ℃ | 100 % | 1008.51 hPa |
| 2026-05-03 21:20:02 | 19.22 ℃ | 100 % | 1008.4 hPa |
| 2026-05-03 21:10:02 | 18.93 ℃ | 100 % | 1008.41 hPa |
| 2026-05-03 21:00:02 | 19.18 ℃ | 100 % | 1008.35 hPa |
| 2026-05-03 20:50:02 | 19.23 ℃ | 100 % | 1008.29 hPa |
| 2026-05-03 20:40:02 | 19.4 ℃ | 100 % | 1008.21 hPa |
| 2026-05-03 20:30:02 | 19.9 ℃ | 100 % | 1007.96 hPa |
| 2026-05-03 20:20:02 | 20.35 ℃ | 100 % | 1007.68 hPa |
| 2026-05-03 20:10:02 | 20.19 ℃ | 100 % | 1007.46 hPa |
| 2026-05-03 20:00:02 | 20.18 ℃ | 100 % | 1007.18 hPa |
| 2026-05-03 19:50:02 | 20.08 ℃ | 100 % | 1007.17 hPa |
| 2026-05-03 19:40:03 | 19.92 ℃ | 100 % | 1007.22 hPa |
| 2026-05-03 19:30:02 | 19.75 ℃ | 100 % | 1007.19 hPa |
| 2026-05-03 19:20:02 | 19.51 ℃ | 100 % | 1007.25 hPa |
| 2026-05-03 19:10:02 | 19.51 ℃ | 100 % | 1007.25 hPa |
| 2026-05-03 19:00:03 | 19.97 ℃ | 100 % | 1007.31 hPa |
| 2026-05-03 18:50:03 | 19.57 ℃ | 100 % | 1007.09 hPa |
| 2026-05-03 18:40:02 | 19.48 ℃ | 100 % | 1007.32 hPa |
| 2026-05-03 18:30:02 | 19.84 ℃ | 100 % | 1007.56 hPa |
| 2026-05-03 18:20:02 | 19.75 ℃ | 100 % | 1007.71 hPa |
| 2026-05-03 18:10:03 | 19.69 ℃ | 100 % | 1007.89 hPa |
| 2026-05-03 18:00:02 | 20 ℃ | 100 % | 1008.04 hPa |
| 2026-05-03 17:50:02 | 20.36 ℃ | 100 % | 1008.11 hPa |
| 2026-05-03 17:40:02 | 19.9 ℃ | 100 % | 1008.29 hPa |
| 2026-05-03 17:30:03 | 19.26 ℃ | 100 % | 1008.48 hPa |
| 2026-05-03 17:20:02 | 19.2 ℃ | 100 % | 1008.61 hPa |
| 2026-05-03 17:10:03 | 19.42 ℃ | 100 % | 1008.67 hPa |
| 2026-05-03 17:00:02 | 19.65 ℃ | 100 % | 1008.8 hPa |
| Durchschnitt | 15.39 ℃ | 93.19 % | 1015.37 hPa |
Nachfolgend die Extremwerte seit Aufzeichnung.
| Bezeichnung | Wert | Zeitpunkt |
|---|---|---|
| Niedrigste Temperatur | -145.27 ℃ | 2026-01-26 10:26:14 |
| Höchste Temperatur | 39.1 ℃ | 2022-07-20 16:29:08 |
| Niedrigster Luftdruck | 773.33 hPa | 2026-02-11 23:59:43 |
| Höchster Luftdruck | 1162.75 hPa | 2026-01-26 10:26:14 |
| Niedrigste Luftfeuchtigkeit | 22.3 % | 2020-04-13 15:26:13 |
| Höchste Luftfeuchtigkeit | 100 % | 2026-05-10 16:49:47 |